<?xml version="1.0" encoding="UTF-8" standalone="no" ?>
<gpx xmlns="http://www.topografix.com/GPX/1/1" xmlns:xsi="http://www.w3.org/2001/XMLSchema-instance" xsi:schemaLocation="http://www.topografix.com/GPX/1/1 http://www.topografix.com/GPX/1/1/gpx.xsd" version="1.1" creator="VisuGPX - https://www.visugpx.com">
  <metadata>
    <name>lundi 2016 09 19</name>
    <desc><![CDATA[rando du lundi en groupe d'amis]]></desc>
  </metadata>
  <trk>
    <name><![CDATA[Rando Roller du lundi 19 septembre]]></name>
    <trkseg>
      <trkpt lat="48.85747" lon="2.34729">
        <ele>40.400001525879</ele>
        <time>2016-09-19T18:20:37.000Z</time>
      </trkpt>
      <trkpt lat="48.85738" lon="2.34724">
        <ele>40.400001525879</ele>
        <time>2016-09-19T18:20:52.000Z</time>
      </trkpt>
      <trkpt lat="48.85737" lon="2.34718">
        <ele>40.400001525879</ele>
        <time>2016-09-19T18:20:55.000Z</time>
      </trkpt>
      <trkpt lat="48.85737" lon="2.34705">
        <ele>40.200000762939</ele>
        <time>2016-09-19T18:21:00.000Z</time>
      </trkpt>
      <trkpt lat="48.85703" lon="2.34685">
        <ele>40.799999237061</ele>
        <time>2016-09-19T18:21:18.000Z</time>
      </trkpt>
      <trkpt lat="48.85661" lon="2.34658">
        <ele>43.400001525879</ele>
        <time>2016-09-19T18:21:57.000Z</time>
      </trkpt>
      <trkpt lat="48.85636" lon="2.34638">
        <ele>45.599998474121</ele>
        <time>2016-09-19T18:22:51.000Z</time>
      </trkpt>
      <trkpt lat="48.8559" lon="2.34614">
        <ele>47.799999237061</ele>
        <time>2016-09-19T18:23:08.000Z</time>
      </trkpt>
      <trkpt lat="48.85548" lon="2.34587">
        <ele>47.400001525879</ele>
        <time>2016-09-19T18:23:19.000Z</time>
      </trkpt>
      <trkpt lat="48.85506" lon="2.34554">
        <ele>45.400001525879</ele>
        <time>2016-09-19T18:23:30.000Z</time>
      </trkpt>
      <trkpt lat="48.85462" lon="2.34526">
        <ele>42.599998474121</ele>
        <time>2016-09-19T18:23:40.000Z</time>
      </trkpt>
      <trkpt lat="48.85442" lon="2.34501">
        <ele>41.200000762939</ele>
        <time>2016-09-19T18:23:45.000Z</time>
      </trkpt>
      <trkpt lat="48.85408" lon="2.34453">
        <ele>41.599998474121</ele>
        <time>2016-09-19T18:23:57.000Z</time>
      </trkpt>
      <trkpt lat="48.8539" lon="2.3443">
        <ele>42</ele>
        <time>2016-09-19T18:24:22.000Z</time>
      </trkpt>
      <trkpt lat="48.85357" lon="2.34379">
        <ele>45.200000762939</ele>
        <time>2016-09-19T18:24:36.000Z</time>
      </trkpt>
      <trkpt lat="48.85324" lon="2.34332">
        <ele>47.799999237061</ele>
        <time>2016-09-19T18:24:49.000Z</time>
      </trkpt>
      <trkpt lat="48.85308" lon="2.34324">
        <ele>48.200000762939</ele>
        <time>2016-09-19T18:25:00.000Z</time>
      </trkpt>
      <trkpt lat="48.85263" lon="2.34313">
        <ele>49</ele>
        <time>2016-09-19T18:25:17.000Z</time>
      </trkpt>
      <trkpt lat="48.85224" lon="2.34279">
        <ele>49</ele>
        <time>2016-09-19T18:25:34.000Z</time>
      </trkpt>
      <trkpt lat="48.85189" lon="2.34234">
        <ele>48.599998474121</ele>
        <time>2016-09-19T18:25:51.000Z</time>
      </trkpt>
      <trkpt lat="48.85184" lon="2.3422">
        <ele>48</ele>
        <time>2016-09-19T18:26:15.000Z</time>
      </trkpt>
      <trkpt lat="48.85183" lon="2.34218">
        <ele>48</ele>
        <time>2016-09-19T18:26:17.000Z</time>
      </trkpt>
      <trkpt lat="48.85146" lon="2.34181">
        <ele>46.599998474121</ele>
        <time>2016-09-19T18:26:30.000Z</time>
      </trkpt>
      <trkpt lat="48.85101" lon="2.34156">
        <ele>46.200000762939</ele>
        <time>2016-09-19T18:26:42.000Z</time>
      </trkpt>
      <trkpt lat="48.85097" lon="2.3415">
        <ele>46.400001525879</ele>
        <time>2016-09-19T18:26:45.000Z</time>
      </trkpt>
      <trkpt lat="48.85072" lon="2.34207">
        <ele>48.799999237061</ele>
        <time>2016-09-19T18:27:07.000Z</time>
      </trkpt>
      <trkpt lat="48.85047" lon="2.34248">
        <ele>51.799999237061</ele>
        <time>2016-09-19T18:27:26.000Z</time>
      </trkpt>
      <trkpt lat="48.8503" lon="2.34197">
        <ele>50.200000762939</ele>
        <time>2016-09-19T18:27:39.000Z</time>
      </trkpt>
      <trkpt lat="48.85017" lon="2.3413">
        <ele>49.799999237061</ele>
        <time>2016-09-19T18:27:51.000Z</time>
      </trkpt>
      <trkpt lat="48.85005" lon="2.3406">
        <ele>52.400001525879</ele>
        <time>2016-09-19T18:28:03.000Z</time>
      </trkpt>
      <trkpt lat="48.84993" lon="2.34008">
        <ele>55.400001525879</ele>
        <time>2016-09-19T18:28:16.000Z</time>
      </trkpt>
      <trkpt lat="48.84982" lon="2.34007">
        <ele>56.599998474121</ele>
        <time>2016-09-19T18:28:21.000Z</time>
      </trkpt>
      <trkpt lat="48.84937" lon="2.34027">
        <ele>59.200000762939</ele>
        <time>2016-09-19T18:28:34.000Z</time>
      </trkpt>
      <trkpt lat="48.84898" lon="2.34039">
        <ele>59.599998474121</ele>
        <time>2016-09-19T18:28:50.000Z</time>
      </trkpt>
      <trkpt lat="48.84854" lon="2.34059">
        <ele>60.599998474121</ele>
        <time>2016-09-19T18:29:06.000Z</time>
      </trkpt>
      <trkpt lat="48.84809" lon="2.34071">
        <ele>58.599998474121</ele>
        <time>2016-09-19T18:29:21.000Z</time>
      </trkpt>
      <trkpt lat="48.8476" lon="2.34079">
        <ele>58.200000762939</ele>
        <time>2016-09-19T18:29:44.000Z</time>
      </trkpt>
      <trkpt lat="48.84753" lon="2.34074">
        <ele>58</ele>
        <time>2016-09-19T18:29:57.000Z</time>
      </trkpt>
      <trkpt lat="48.84714" lon="2.34054">
        <ele>57.200000762939</ele>
        <time>2016-09-19T18:30:15.000Z</time>
      </trkpt>
      <trkpt lat="48.84671" lon="2.34038">
        <ele>58.599998474121</ele>
        <time>2016-09-19T18:30:30.000Z</time>
      </trkpt>
      <trkpt lat="48.84627" lon="2.34012">
        <ele>61</ele>
        <time>2016-09-19T18:30:40.000Z</time>
      </trkpt>
      <trkpt lat="48.84584" lon="2.33991">
        <ele>62.599998474121</ele>
        <time>2016-09-19T18:30:49.000Z</time>
      </trkpt>
      <trkpt lat="48.84541" lon="2.3397">
        <ele>62.799999237061</ele>
        <time>2016-09-19T18:30:58.000Z</time>
      </trkpt>
      <trkpt lat="48.84517" lon="2.33957">
        <ele>62.799999237061</ele>
        <time>2016-09-19T18:31:03.000Z</time>
      </trkpt>
      <trkpt lat="48.8447" lon="2.33937">
        <ele>62.799999237061</ele>
        <time>2016-09-19T18:31:11.000Z</time>
      </trkpt>
      <trkpt lat="48.84426" lon="2.33915">
        <ele>61.400001525879</ele>
        <time>2016-09-19T18:31:19.000Z</time>
      </trkpt>
      <trkpt lat="48.84381" lon="2.33888">
        <ele>61.200000762939</ele>
        <time>2016-09-19T18:31:30.000Z</time>
      </trkpt>
      <trkpt lat="48.84338" lon="2.3386">
        <ele>61.200000762939</ele>
        <time>2016-09-19T18:31:40.000Z</time>
      </trkpt>
      <trkpt lat="48.84295" lon="2.33837">
        <ele>61.400001525879</ele>
        <time>2016-09-19T18:31:49.000Z</time>
      </trkpt>
      <trkpt lat="48.84268" lon="2.3382">
        <ele>61.200000762939</ele>
        <time>2016-09-19T18:31:55.000Z</time>
      </trkpt>
      <trkpt lat="48.84258" lon="2.33815">
        <ele>61.599998474121</ele>
        <time>2016-09-19T18:31:57.000Z</time>
      </trkpt>
      <trkpt lat="48.84212" lon="2.33792">
        <ele>63.799999237061</ele>
        <time>2016-09-19T18:32:05.000Z</time>
      </trkpt>
      <trkpt lat="48.84167" lon="2.33771">
        <ele>63.799999237061</ele>
        <time>2016-09-19T18:32:12.000Z</time>
      </trkpt>
      <trkpt lat="48.84121" lon="2.33748">
        <ele>61.599998474121</ele>
        <time>2016-09-19T18:32:19.000Z</time>
      </trkpt>
      <trkpt lat="48.84073" lon="2.33733">
        <ele>61.799999237061</ele>
        <time>2016-09-19T18:32:27.000Z</time>
      </trkpt>
      <trkpt lat="48.84067" lon="2.33731">
        <ele>62</ele>
        <time>2016-09-19T18:32:28.000Z</time>
      </trkpt>
      <trkpt lat="48.84025" lon="2.33705">
        <ele>63</ele>
        <time>2016-09-19T18:32:40.000Z</time>
      </trkpt>
      <trkpt lat="48.84006" lon="2.33679">
        <ele>62.200000762939</ele>
        <time>2016-09-19T18:33:08.000Z</time>
      </trkpt>
      <trkpt lat="48.83989" lon="2.33663">
        <ele>61.599998474121</ele>
        <time>2016-09-19T18:34:05.000Z</time>
      </trkpt>
      <trkpt lat="48.83944" lon="2.33666">
        <ele>61</ele>
        <time>2016-09-19T18:34:21.000Z</time>
      </trkpt>
      <trkpt lat="48.83895" lon="2.33675">
        <ele>60.799999237061</ele>
        <time>2016-09-19T18:34:34.000Z</time>
      </trkpt>
      <trkpt lat="48.83849" lon="2.33681">
        <ele>60.400001525879</ele>
        <time>2016-09-19T18:34:46.000Z</time>
      </trkpt>
      <trkpt lat="48.83803" lon="2.33677">
        <ele>62.599998474121</ele>
        <time>2016-09-19T18:34:59.000Z</time>
      </trkpt>
      <trkpt lat="48.83786" lon="2.33677">
        <ele>63.400001525879</ele>
        <time>2016-09-19T18:35:03.000Z</time>
      </trkpt>
      <trkpt lat="48.83741" lon="2.33666">
        <ele>64</ele>
        <time>2016-09-19T18:35:14.000Z</time>
      </trkpt>
      <trkpt lat="48.83731" lon="2.33665">
        <ele>64</ele>
        <time>2016-09-19T18:35:28.000Z</time>
      </trkpt>
      <trkpt lat="48.83732" lon="2.3367">
        <ele>64</ele>
        <time>2016-09-19T18:36:02.000Z</time>
      </trkpt>
      <trkpt lat="48.83712" lon="2.33731">
        <ele>62.599998474121</ele>
        <time>2016-09-19T18:36:19.000Z</time>
      </trkpt>
      <trkpt lat="48.83692" lon="2.33796">
        <ele>60.400001525879</ele>
        <time>2016-09-19T18:36:32.000Z</time>
      </trkpt>
      <trkpt lat="48.83681" lon="2.33818">
        <ele>59.400001525879</ele>
        <time>2016-09-19T18:36:40.000Z</time>
      </trkpt>
      <trkpt lat="48.83636" lon="2.3379">
        <ele>60.599998474121</ele>
        <time>2016-09-19T18:36:53.000Z</time>
      </trkpt>
      <trkpt lat="48.83591" lon="2.33766">
        <ele>60.799999237061</ele>
        <time>2016-09-19T18:37:02.000Z</time>
      </trkpt>
      <trkpt lat="48.83544" lon="2.33744">
        <ele>59.200000762939</ele>
        <time>2016-09-19T18:37:11.000Z</time>
      </trkpt>
      <trkpt lat="48.83535" lon="2.33737">
        <ele>59</ele>
        <time>2016-09-19T18:37:13.000Z</time>
      </trkpt>
      <trkpt lat="48.83491" lon="2.33712">
        <ele>59.599998474121</ele>
        <time>2016-09-19T18:37:22.000Z</time>
      </trkpt>
      <trkpt lat="48.83477" lon="2.33704">
        <ele>60.200000762939</ele>
        <time>2016-09-19T18:37:28.000Z</time>
      </trkpt>
      <trkpt lat="48.83474" lon="2.33702">
        <ele>60.200000762939</ele>
        <time>2016-09-19T18:37:31.000Z</time>
      </trkpt>
      <trkpt lat="48.83459" lon="2.33684">
        <ele>61</ele>
        <time>2016-09-19T18:37:48.000Z</time>
      </trkpt>
      <trkpt lat="48.83416" lon="2.33663">
        <ele>62.200000762939</ele>
        <time>2016-09-19T18:38:02.000Z</time>
      </trkpt>
      <trkpt lat="48.83373" lon="2.3364">
        <ele>62.599998474121</ele>
        <time>2016-09-19T18:38:14.000Z</time>
      </trkpt>
      <trkpt lat="48.83331" lon="2.33615">
        <ele>63.599998474121</ele>
        <time>2016-09-19T18:38:24.000Z</time>
      </trkpt>
      <trkpt lat="48.83318" lon="2.33606">
        <ele>64.199996948242</ele>
        <time>2016-09-19T18:38:27.000Z</time>
      </trkpt>
      <trkpt lat="48.83275" lon="2.3358">
        <ele>65.800003051758</ele>
        <time>2016-09-19T18:38:37.000Z</time>
      </trkpt>
      <trkpt lat="48.83232" lon="2.33554">
        <ele>65.199996948242</ele>
        <time>2016-09-19T18:38:46.000Z</time>
      </trkpt>
      <trkpt lat="48.83185" lon="2.33526">
        <ele>64.199996948242</ele>
        <time>2016-09-19T18:38:54.000Z</time>
      </trkpt>
      <trkpt lat="48.83142" lon="2.33497">
        <ele>62.400001525879</ele>
        <time>2016-09-19T18:39:03.000Z</time>
      </trkpt>
      <trkpt lat="48.83101" lon="2.33462">
        <ele>61.200000762939</ele>
        <time>2016-09-19T18:39:15.000Z</time>
      </trkpt>
      <trkpt lat="48.83057" lon="2.33431">
        <ele>62.200000762939</ele>
        <time>2016-09-19T18:39:26.000Z</time>
      </trkpt>
      <trkpt lat="48.83019" lon="2.33404">
        <ele>63.200000762939</ele>
        <time>2016-09-19T18:39:43.000Z</time>
      </trkpt>
      <trkpt lat="48.82974" lon="2.33403">
        <ele>64.199996948242</ele>
        <time>2016-09-19T18:40:01.000Z</time>
      </trkpt>
      <trkpt lat="48.82934" lon="2.33367">
        <ele>65.199996948242</ele>
        <time>2016-09-19T18:40:16.000Z</time>
      </trkpt>
      <trkpt lat="48.82891" lon="2.3334">
        <ele>66.800003051758</ele>
        <time>2016-09-19T18:40:28.000Z</time>
      </trkpt>
      <trkpt lat="48.82883" lon="2.33336">
        <ele>67</ele>
        <time>2016-09-19T18:40:30.000Z</time>
      </trkpt>
      <trkpt lat="48.82838" lon="2.33306">
        <ele>69</ele>
        <time>2016-09-19T18:40:41.000Z</time>
      </trkpt>
      <trkpt lat="48.82796" lon="2.33274">
        <ele>71.400001525879</ele>
        <time>2016-09-19T18:40:53.000Z</time>
      </trkpt>
      <trkpt lat="48.82788" lon="2.33265">
        <ele>72</ele>
        <time>2016-09-19T18:41:12.000Z</time>
      </trkpt>
      <trkpt lat="48.82745" lon="2.33239">
        <ele>73.599998474121</ele>
        <time>2016-09-19T18:41:32.000Z</time>
      </trkpt>
      <trkpt lat="48.82713" lon="2.33222">
        <ele>74.599998474121</ele>
        <time>2016-09-19T18:41:46.000Z</time>
      </trkpt>
      <trkpt lat="48.82667" lon="2.33198">
        <ele>75.599998474121</ele>
        <time>2016-09-19T18:41:59.000Z</time>
      </trkpt>
      <trkpt lat="48.82654" lon="2.33195">
        <ele>75.400001525879</ele>
        <time>2016-09-19T18:42:02.000Z</time>
      </trkpt>
      <trkpt lat="48.8261" lon="2.33171">
        <ele>76</ele>
        <time>2016-09-19T18:42:18.000Z</time>
      </trkpt>
      <trkpt lat="48.8256" lon="2.33163">
        <ele>78.199996948242</ele>
        <time>2016-09-19T18:42:30.000Z</time>
      </trkpt>
      <trkpt lat="48.82524" lon="2.33141">
        <ele>79.400001525879</ele>
        <time>2016-09-19T18:42:37.000Z</time>
      </trkpt>
      <trkpt lat="48.82481" lon="2.33122">
        <ele>78.400001525879</ele>
        <time>2016-09-19T18:42:47.000Z</time>
      </trkpt>
      <trkpt lat="48.82432" lon="2.33114">
        <ele>76.400001525879</ele>
        <time>2016-09-19T18:42:58.000Z</time>
      </trkpt>
      <trkpt lat="48.8239" lon="2.33091">
        <ele>75.599998474121</ele>
        <time>2016-09-19T18:43:13.000Z</time>
      </trkpt>
      <trkpt lat="48.82369" lon="2.33088">
        <ele>75.199996948242</ele>
        <time>2016-09-19T18:43:24.000Z</time>
      </trkpt>
      <trkpt lat="48.82325" lon="2.33079">
        <ele>76.199996948242</ele>
        <time>2016-09-19T18:43:42.000Z</time>
      </trkpt>
      <trkpt lat="48.8228" lon="2.33062">
        <ele>78</ele>
        <time>2016-09-19T18:43:54.000Z</time>
      </trkpt>
      <trkpt lat="48.82235" lon="2.33062">
        <ele>79.599998474121</ele>
        <time>2016-09-19T18:44:11.000Z</time>
      </trkpt>
      <trkpt lat="48.8223" lon="2.33044">
        <ele>80.400001525879</ele>
        <time>2016-09-19T18:44:55.000Z</time>
      </trkpt>
      <trkpt lat="48.82186" lon="2.33019">
        <ele>82</ele>
        <time>2016-09-19T18:45:12.000Z</time>
      </trkpt>
      <trkpt lat="48.8214" lon="2.33005">
        <ele>79.199996948242</ele>
        <time>2016-09-19T18:45:22.000Z</time>
      </trkpt>
      <trkpt lat="48.82096" lon="2.32988">
        <ele>76.400001525879</ele>
        <time>2016-09-19T18:45:41.000Z</time>
      </trkpt>
      <trkpt lat="48.82101" lon="2.32997">
        <ele>77</ele>
        <time>2016-09-19T18:46:23.000Z</time>
      </trkpt>
      <trkpt lat="48.82095" lon="2.33025">
        <ele>77.599998474121</ele>
        <time>2016-09-19T18:47:05.000Z</time>
      </trkpt>
      <trkpt lat="48.82087" lon="2.33092">
        <ele>79.199996948242</ele>
        <time>2016-09-19T18:47:22.000Z</time>
      </trkpt>
      <trkpt lat="48.82073" lon="2.33148">
        <ele>80.400001525879</ele>
        <time>2016-09-19T18:47:41.000Z</time>
      </trkpt>
      <trkpt lat="48.82071" lon="2.33153">
        <ele>80.400001525879</ele>
        <time>2016-09-19T18:47:44.000Z</time>
      </trkpt>
      <trkpt lat="48.82062" lon="2.33187">
        <ele>80</ele>
        <time>2016-09-19T18:48:01.000Z</time>
      </trkpt>
      <trkpt lat="48.82049" lon="2.33256">
        <ele>80.800003051758</ele>
        <time>2016-09-19T18:48:31.000Z</time>
      </trkpt>
      <trkpt lat="48.82045" lon="2.33266">
        <ele>80.800003051758</ele>
        <time>2016-09-19T18:48:34.000Z</time>
      </trkpt>
      <trkpt lat="48.82035" lon="2.33302">
        <ele>82</ele>
        <time>2016-09-19T18:48:49.000Z</time>
      </trkpt>
      <trkpt lat="48.8203" lon="2.33319">
        <ele>82.599998474121</ele>
        <time>2016-09-19T18:49:13.000Z</time>
      </trkpt>
      <trkpt lat="48.82012" lon="2.33371">
        <ele>82.599998474121</ele>
        <time>2016-09-19T18:50:06.000Z</time>
      </trkpt>
      <trkpt lat="48.82003" lon="2.33382">
        <ele>82.599998474121</ele>
        <time>2016-09-19T18:50:16.000Z</time>
      </trkpt>
      <trkpt lat="48.81988" lon="2.33368">
        <ele>83</ele>
        <time>2016-09-19T18:50:31.000Z</time>
      </trkpt>
      <trkpt lat="48.81943" lon="2.33343">
        <ele>83.599998474121</ele>
        <time>2016-09-19T18:50:50.000Z</time>
      </trkpt>
      <trkpt lat="48.81899" lon="2.33317">
        <ele>82.400001525879</ele>
        <time>2016-09-19T18:51:01.000Z</time>
      </trkpt>
      <trkpt lat="48.81876" lon="2.33305">
        <ele>81.599998474121</ele>
        <time>2016-09-19T18:51:06.000Z</time>
      </trkpt>
      <trkpt lat="48.81837" lon="2.33287">
        <ele>81.599998474121</ele>
        <time>2016-09-19T18:51:14.000Z</time>
      </trkpt>
      <trkpt lat="48.81811" lon="2.33279">
        <ele>82.800003051758</ele>
        <time>2016-09-19T18:51:19.000Z</time>
      </trkpt>
      <trkpt lat="48.81766" lon="2.33257">
        <ele>84.400001525879</ele>
        <time>2016-09-19T18:51:30.000Z</time>
      </trkpt>
      <trkpt lat="48.81723" lon="2.33229">
        <ele>82.800003051758</ele>
        <time>2016-09-19T18:51:45.000Z</time>
      </trkpt>
      <trkpt lat="48.8171" lon="2.33207">
        <ele>81.800003051758</ele>
        <time>2016-09-19T18:52:38.000Z</time>
      </trkpt>
      <trkpt lat="48.81668" lon="2.33183">
        <ele>80</ele>
        <time>2016-09-19T18:53:10.000Z</time>
      </trkpt>
      <trkpt lat="48.81653" lon="2.33173">
        <ele>79.400001525879</ele>
        <time>2016-09-19T18:53:13.000Z</time>
      </trkpt>
      <trkpt lat="48.81608" lon="2.33139">
        <ele>77.800003051758</ele>
        <time>2016-09-19T18:53:21.000Z</time>
      </trkpt>
      <trkpt lat="48.81566" lon="2.33109">
        <ele>80.199996948242</ele>
        <time>2016-09-19T18:53:28.000Z</time>
      </trkpt>
      <trkpt lat="48.81525" lon="2.33078">
        <ele>82.800003051758</ele>
        <time>2016-09-19T18:53:35.000Z</time>
      </trkpt>
      <trkpt lat="48.8148" lon="2.33042">
        <ele>82.599998474121</ele>
        <time>2016-09-19T18:53:43.000Z</time>
      </trkpt>
      <trkpt lat="48.81441" lon="2.33004">
        <ele>82.199996948242</ele>
        <time>2016-09-19T18:53:52.000Z</time>
      </trkpt>
      <trkpt lat="48.81403" lon="2.32962">
        <ele>82</ele>
        <time>2016-09-19T18:54:02.000Z</time>
      </trkpt>
      <trkpt lat="48.81396" lon="2.32955">
        <ele>82</ele>
        <time>2016-09-19T18:54:04.000Z</time>
      </trkpt>
      <trkpt lat="48.81387" lon="2.32947">
        <ele>82</ele>
        <time>2016-09-19T18:54:06.000Z</time>
      </trkpt>
      <trkpt lat="48.81346" lon="2.32912">
        <ele>81.800003051758</ele>
        <time>2016-09-19T18:54:15.000Z</time>
      </trkpt>
      <trkpt lat="48.81332" lon="2.32901">
        <ele>81.800003051758</ele>
        <time>2016-09-19T18:54:18.000Z</time>
      </trkpt>
      <trkpt lat="48.8129" lon="2.32873">
        <ele>81.199996948242</ele>
        <time>2016-09-19T18:54:29.000Z</time>
      </trkpt>
      <trkpt lat="48.81257" lon="2.32826">
        <ele>80.599998474121</ele>
        <time>2016-09-19T18:54:42.000Z</time>
      </trkpt>
      <trkpt lat="48.81213" lon="2.32805">
        <ele>79.199996948242</ele>
        <time>2016-09-19T18:54:53.000Z</time>
      </trkpt>
      <trkpt lat="48.81189" lon="2.32795">
        <ele>78.400001525879</ele>
        <time>2016-09-19T18:54:59.000Z</time>
      </trkpt>
      <trkpt lat="48.81185" lon="2.32793">
        <ele>78.400001525879</ele>
        <time>2016-09-19T18:55:00.000Z</time>
      </trkpt>
      <trkpt lat="48.8117" lon="2.32785">
        <ele>78.800003051758</ele>
        <time>2016-09-19T18:55:03.000Z</time>
      </trkpt>
      <trkpt lat="48.81135" lon="2.32753">
        <ele>79.599998474121</ele>
        <time>2016-09-19T18:55:11.000Z</time>
      </trkpt>
      <trkpt lat="48.81097" lon="2.32717">
        <ele>80.199996948242</ele>
        <time>2016-09-19T18:55:26.000Z</time>
      </trkpt>
      <trkpt lat="48.81096" lon="2.32715">
        <ele>80.199996948242</ele>
        <time>2016-09-19T18:55:27.000Z</time>
      </trkpt>
      <trkpt lat="48.81094" lon="2.32711">
        <ele>80.199996948242</ele>
        <time>2016-09-19T18:55:29.000Z</time>
      </trkpt>
      <trkpt lat="48.81096" lon="2.32707">
        <ele>80.400001525879</ele>
        <time>2016-09-19T18:55:31.000Z</time>
      </trkpt>
      <trkpt lat="48.8109" lon="2.32705">
        <ele>80.400001525879</ele>
        <time>2016-09-19T18:57:57.000Z</time>
      </trkpt>
      <trkpt lat="48.81047" lon="2.3271">
        <ele>79.800003051758</ele>
        <time>2016-09-19T18:58:19.000Z</time>
      </trkpt>
      <trkpt lat="48.81008" lon="2.32733">
        <ele>78.800003051758</ele>
        <time>2016-09-19T18:58:46.000Z</time>
      </trkpt>
      <trkpt lat="48.80983" lon="2.32791">
        <ele>78</ele>
        <time>2016-09-19T18:59:00.000Z</time>
      </trkpt>
      <trkpt lat="48.80962" lon="2.32855">
        <ele>75.199996948242</ele>
        <time>2016-09-19T18:59:11.000Z</time>
      </trkpt>
      <trkpt lat="48.80945" lon="2.32909">
        <ele>75</ele>
        <time>2016-09-19T18:59:19.000Z</time>
      </trkpt>
      <trkpt lat="48.80923" lon="2.32974">
        <ele>74</ele>
        <time>2016-09-19T18:59:29.000Z</time>
      </trkpt>
      <trkpt lat="48.80918" lon="2.32987">
        <ele>73.400001525879</ele>
        <time>2016-09-19T18:59:31.000Z</time>
      </trkpt>
      <trkpt lat="48.80898" lon="2.33042">
        <ele>72</ele>
        <time>2016-09-19T18:59:39.000Z</time>
      </trkpt>
      <trkpt lat="48.80873" lon="2.33099">
        <ele>71.199996948242</ele>
        <time>2016-09-19T18:59:48.000Z</time>
      </trkpt>
      <trkpt lat="48.80869" lon="2.33113">
        <ele>70.599998474121</ele>
        <time>2016-09-19T18:59:50.000Z</time>
      </trkpt>
      <trkpt lat="48.80856" lon="2.33149">
        <ele>69.400001525879</ele>
        <time>2016-09-19T18:59:55.000Z</time>
      </trkpt>
      <trkpt lat="48.80838" lon="2.33212">
        <ele>68.800003051758</ele>
        <time>2016-09-19T19:00:03.000Z</time>
      </trkpt>
      <trkpt lat="48.80811" lon="2.33276">
        <ele>69</ele>
        <time>2016-09-19T19:00:11.000Z</time>
      </trkpt>
      <trkpt lat="48.80787" lon="2.33342">
        <ele>66.199996948242</ele>
        <time>2016-09-19T19:00:19.000Z</time>
      </trkpt>
      <trkpt lat="48.80775" lon="2.33378">
        <ele>64.400001525879</ele>
        <time>2016-09-19T19:00:23.000Z</time>
      </trkpt>
      <trkpt lat="48.80768" lon="2.33395">
        <ele>63.799999237061</ele>
        <time>2016-09-19T19:00:25.000Z</time>
      </trkpt>
      <trkpt lat="48.80747" lon="2.33461">
        <ele>63</ele>
        <time>2016-09-19T19:00:32.000Z</time>
      </trkpt>
      <trkpt lat="48.80724" lon="2.33526">
        <ele>61</ele>
        <time>2016-09-19T19:00:39.000Z</time>
      </trkpt>
      <trkpt lat="48.80706" lon="2.33585">
        <ele>58</ele>
        <time>2016-09-19T19:00:48.000Z</time>
      </trkpt>
      <trkpt lat="48.80698" lon="2.33623">
        <ele>55.200000762939</ele>
        <time>2016-09-19T19:00:53.000Z</time>
      </trkpt>
      <trkpt lat="48.80688" lon="2.33649">
        <ele>53</ele>
        <time>2016-09-19T19:00:56.000Z</time>
      </trkpt>
      <trkpt lat="48.80674" lon="2.33686">
        <ele>50.599998474121</ele>
        <time>2016-09-19T19:01:00.000Z</time>
      </trkpt>
      <trkpt lat="48.80639" lon="2.33743">
        <ele>47.400001525879</ele>
        <time>2016-09-19T19:01:07.000Z</time>
      </trkpt>
      <trkpt lat="48.80612" lon="2.33773">
        <ele>44.200000762939</ele>
        <time>2016-09-19T19:01:11.000Z</time>
      </trkpt>
      <trkpt lat="48.80595" lon="2.33785">
        <ele>43</ele>
        <time>2016-09-19T19:01:13.000Z</time>
      </trkpt>
      <trkpt lat="48.80576" lon="2.33792">
        <ele>42.200000762939</ele>
        <time>2016-09-19T19:01:15.000Z</time>
      </trkpt>
      <trkpt lat="48.80528" lon="2.338">
        <ele>43.400001525879</ele>
        <time>2016-09-19T19:01:20.000Z</time>
      </trkpt>
      <trkpt lat="48.80481" lon="2.33805">
        <ele>44.799999237061</ele>
        <time>2016-09-19T19:01:26.000Z</time>
      </trkpt>
      <trkpt lat="48.80435" lon="2.33802">
        <ele>46.799999237061</ele>
        <time>2016-09-19T19:01:37.000Z</time>
      </trkpt>
      <trkpt lat="48.80427" lon="2.33805">
        <ele>47.599998474121</ele>
        <time>2016-09-19T19:02:30.000Z</time>
      </trkpt>
      <trkpt lat="48.80379" lon="2.33813">
        <ele>52</ele>
        <time>2016-09-19T19:02:46.000Z</time>
      </trkpt>
      <trkpt lat="48.80332" lon="2.33817">
        <ele>56</ele>
        <time>2016-09-19T19:02:58.000Z</time>
      </trkpt>
      <trkpt lat="48.80308" lon="2.33824">
        <ele>57.599998474121</ele>
        <time>2016-09-19T19:03:04.000Z</time>
      </trkpt>
      <trkpt lat="48.80262" lon="2.33835">
        <ele>61</ele>
        <time>2016-09-19T19:03:15.000Z</time>
      </trkpt>
      <trkpt lat="48.80252" lon="2.33837">
        <ele>62</ele>
        <time>2016-09-19T19:03:17.000Z</time>
      </trkpt>
      <trkpt lat="48.80243" lon="2.33844">
        <ele>63.200000762939</ele>
        <time>2016-09-19T19:03:20.000Z</time>
      </trkpt>
      <trkpt lat="48.80214" lon="2.33895">
        <ele>65</ele>
        <time>2016-09-19T19:03:35.000Z</time>
      </trkpt>
      <trkpt lat="48.8022" lon="2.33962">
        <ele>66.199996948242</ele>
        <time>2016-09-19T19:03:49.000Z</time>
      </trkpt>
      <trkpt lat="48.8025" lon="2.34017">
        <ele>68.400001525879</ele>
        <time>2016-09-19T19:04:04.000Z</time>
      </trkpt>
      <trkpt lat="48.80286" lon="2.34063">
        <ele>70.599998474121</ele>
        <time>2016-09-19T19:04:21.000Z</time>
      </trkpt>
      <trkpt lat="48.80316" lon="2.34105">
        <ele>72</ele>
        <time>2016-09-19T19:04:38.000Z</time>
      </trkpt>
      <trkpt lat="48.80346" lon="2.34158">
        <ele>74</ele>
        <time>2016-09-19T19:04:59.000Z</time>
      </trkpt>
      <trkpt lat="48.80376" lon="2.34212">
        <ele>76.199996948242</ele>
        <time>2016-09-19T19:05:15.000Z</time>
      </trkpt>
      <trkpt lat="48.80407" lon="2.34264">
        <ele>78.199996948242</ele>
        <time>2016-09-19T19:05:29.000Z</time>
      </trkpt>
      <trkpt lat="48.8043" lon="2.34312">
        <ele>80.199996948242</ele>
        <time>2016-09-19T19:05:39.000Z</time>
      </trkpt>
      <trkpt lat="48.80445" lon="2.34344">
        <ele>81.400001525879</ele>
        <time>2016-09-19T19:05:45.000Z</time>
      </trkpt>
      <trkpt lat="48.80451" lon="2.34354">
        <ele>81.599998474121</ele>
        <time>2016-09-19T19:05:47.000Z</time>
      </trkpt>
      <trkpt lat="48.8048" lon="2.34408">
        <ele>82.800003051758</ele>
        <time>2016-09-19T19:05:59.000Z</time>
      </trkpt>
      <trkpt lat="48.80492" lon="2.34436">
        <ele>83</ele>
        <time>2016-09-19T19:07:48.000Z</time>
      </trkpt>
      <trkpt lat="48.80491" lon="2.34458">
        <ele>83</ele>
        <time>2016-09-19T19:07:56.000Z</time>
      </trkpt>
      <trkpt lat="48.80485" lon="2.3452">
        <ele>84.400001525879</ele>
        <time>2016-09-19T19:08:14.000Z</time>
      </trkpt>
      <trkpt lat="48.80498" lon="2.34566">
        <ele>85.400001525879</ele>
        <time>2016-09-19T19:08:25.000Z</time>
      </trkpt>
      <trkpt lat="48.80517" lon="2.34635">
        <ele>87.800003051758</ele>
        <time>2016-09-19T19:08:36.000Z</time>
      </trkpt>
      <trkpt lat="48.80535" lon="2.34704">
        <ele>89.400001525879</ele>
        <time>2016-09-19T19:08:46.000Z</time>
      </trkpt>
      <trkpt lat="48.8055" lon="2.34756">
        <ele>90.199996948242</ele>
        <time>2016-09-19T19:08:53.000Z</time>
      </trkpt>
      <trkpt lat="48.80558" lon="2.34808">
        <ele>91.800003051758</ele>
        <time>2016-09-19T19:09:00.000Z</time>
      </trkpt>
      <trkpt lat="48.8056" lon="2.34829">
        <ele>92.199996948242</ele>
        <time>2016-09-19T19:09:03.000Z</time>
      </trkpt>
      <trkpt lat="48.80565" lon="2.34855">
        <ele>92.400001525879</ele>
        <time>2016-09-19T19:09:07.000Z</time>
      </trkpt>
      <trkpt lat="48.80589" lon="2.34916">
        <ele>92.800003051758</ele>
        <time>2016-09-19T19:09:18.000Z</time>
      </trkpt>
      <trkpt lat="48.80614" lon="2.34975">
        <ele>94</ele>
        <time>2016-09-19T19:09:33.000Z</time>
      </trkpt>
      <trkpt lat="48.80636" lon="2.35035">
        <ele>95</ele>
        <time>2016-09-19T19:09:48.000Z</time>
      </trkpt>
      <trkpt lat="48.80648" lon="2.3507">
        <ele>96</ele>
        <time>2016-09-19T19:09:54.000Z</time>
      </trkpt>
      <trkpt lat="48.80671" lon="2.35135">
        <ele>96.400001525879</ele>
        <time>2016-09-19T19:10:05.000Z</time>
      </trkpt>
      <trkpt lat="48.80693" lon="2.35199">
        <ele>97.800003051758</ele>
        <time>2016-09-19T19:10:17.000Z</time>
      </trkpt>
      <trkpt lat="48.80714" lon="2.35261">
        <ele>100</ele>
        <time>2016-09-19T19:10:30.000Z</time>
      </trkpt>
      <trkpt lat="48.80721" lon="2.35298">
        <ele>100.40000152588</ele>
        <time>2016-09-19T19:10:35.000Z</time>
      </trkpt>
      <trkpt lat="48.80725" lon="2.35324">
        <ele>101.19999694824</ele>
        <time>2016-09-19T19:10:38.000Z</time>
      </trkpt>
      <trkpt lat="48.80731" lon="2.35393">
        <ele>99.199996948242</ele>
        <time>2016-09-19T19:10:47.000Z</time>
      </trkpt>
      <trkpt lat="48.80738" lon="2.35426">
        <ele>98.400001525879</ele>
        <time>2016-09-19T19:10:58.000Z</time>
      </trkpt>
      <trkpt lat="48.80722" lon="2.35367">
        <ele>100.40000152588</ele>
        <time>2016-09-19T19:11:12.000Z</time>
      </trkpt>
      <trkpt lat="48.80727" lon="2.35415">
        <ele>99.400001525879</ele>
        <time>2016-09-19T19:11:24.000Z</time>
      </trkpt>
      <trkpt lat="48.80741" lon="2.35481">
        <ele>99</ele>
        <time>2016-09-19T19:11:36.000Z</time>
      </trkpt>
      <trkpt lat="48.80752" lon="2.3555">
        <ele>98.800003051758</ele>
        <time>2016-09-19T19:12:05.000Z</time>
      </trkpt>
      <trkpt lat="48.80767" lon="2.35617">
        <ele>96</ele>
        <time>2016-09-19T19:12:17.000Z</time>
      </trkpt>
      <trkpt lat="48.80794" lon="2.35678">
        <ele>91.599998474121</ele>
        <time>2016-09-19T19:12:28.000Z</time>
      </trkpt>
      <trkpt lat="48.8083" lon="2.35726">
        <ele>87.599998474121</ele>
        <time>2016-09-19T19:12:37.000Z</time>
      </trkpt>
      <trkpt lat="48.80871" lon="2.3577">
        <ele>84.199996948242</ele>
        <time>2016-09-19T19:12:44.000Z</time>
      </trkpt>
      <trkpt lat="48.80911" lon="2.35808">
        <ele>81.599998474121</ele>
        <time>2016-09-19T19:12:50.000Z</time>
      </trkpt>
      <trkpt lat="48.8095" lon="2.35849">
        <ele>79.599998474121</ele>
        <time>2016-09-19T19:12:56.000Z</time>
      </trkpt>
      <trkpt lat="48.8097" lon="2.35874">
        <ele>79</ele>
        <time>2016-09-19T19:13:00.000Z</time>
      </trkpt>
      <trkpt lat="48.80977" lon="2.35889">
        <ele>78.599998474121</ele>
        <time>2016-09-19T19:13:02.000Z</time>
      </trkpt>
      <trkpt lat="48.80982" lon="2.35909">
        <ele>78.199996948242</ele>
        <time>2016-09-19T19:13:04.000Z</time>
      </trkpt>
      <trkpt lat="48.80981" lon="2.35941">
        <ele>75.800003051758</ele>
        <time>2016-09-19T19:13:07.000Z</time>
      </trkpt>
      <trkpt lat="48.80973" lon="2.36012">
        <ele>73.199996948242</ele>
        <time>2016-09-19T19:13:14.000Z</time>
      </trkpt>
      <trkpt lat="48.80972" lon="2.36028">
        <ele>73</ele>
        <time>2016-09-19T19:13:16.000Z</time>
      </trkpt>
      <trkpt lat="48.80971" lon="2.36059">
        <ele>73</ele>
        <time>2016-09-19T19:13:20.000Z</time>
      </trkpt>
      <trkpt lat="48.80965" lon="2.36126">
        <ele>73.800003051758</ele>
        <time>2016-09-19T19:13:28.000Z</time>
      </trkpt>
      <trkpt lat="48.80958" lon="2.36195">
        <ele>73</ele>
        <time>2016-09-19T19:13:40.000Z</time>
      </trkpt>
      <trkpt lat="48.8095" lon="2.36207">
        <ele>72.599998474121</ele>
        <time>2016-09-19T19:16:33.000Z</time>
      </trkpt>
      <trkpt lat="48.80951" lon="2.36212">
        <ele>72.400001525879</ele>
        <time>2016-09-19T19:16:36.000Z</time>
      </trkpt>
      <trkpt lat="48.80983" lon="2.36254">
        <ele>69.800003051758</ele>
        <time>2016-09-19T19:16:57.000Z</time>
      </trkpt>
      <trkpt lat="48.81021" lon="2.36294">
        <ele>67.400001525879</ele>
        <time>2016-09-19T19:17:10.000Z</time>
      </trkpt>
      <trkpt lat="48.81055" lon="2.3634">
        <ele>66.199996948242</ele>
        <time>2016-09-19T19:17:19.000Z</time>
      </trkpt>
      <trkpt lat="48.8109" lon="2.36387">
        <ele>64.199996948242</ele>
        <time>2016-09-19T19:17:27.000Z</time>
      </trkpt>
      <trkpt lat="48.81124" lon="2.36432">
        <ele>62.400001525879</ele>
        <time>2016-09-19T19:17:35.000Z</time>
      </trkpt>
      <trkpt lat="48.81144" lon="2.36463">
        <ele>61.400001525879</ele>
        <time>2016-09-19T19:17:40.000Z</time>
      </trkpt>
      <trkpt lat="48.81148" lon="2.36469">
        <ele>61.200000762939</ele>
        <time>2016-09-19T19:17:41.000Z</time>
      </trkpt>
      <trkpt lat="48.81171" lon="2.3653">
        <ele>60.599998474121</ele>
        <time>2016-09-19T19:17:49.000Z</time>
      </trkpt>
      <trkpt lat="48.81191" lon="2.36598">
        <ele>61.200000762939</ele>
        <time>2016-09-19T19:17:57.000Z</time>
      </trkpt>
      <trkpt lat="48.81197" lon="2.36624">
        <ele>61.400001525879</ele>
        <time>2016-09-19T19:18:00.000Z</time>
      </trkpt>
      <trkpt lat="48.81215" lon="2.36692">
        <ele>61.799999237061</ele>
        <time>2016-09-19T19:18:08.000Z</time>
      </trkpt>
      <trkpt lat="48.81235" lon="2.36761">
        <ele>63.200000762939</ele>
        <time>2016-09-19T19:18:17.000Z</time>
      </trkpt>
      <trkpt lat="48.81254" lon="2.36825">
        <ele>64.199996948242</ele>
        <time>2016-09-19T19:18:26.000Z</time>
      </trkpt>
      <trkpt lat="48.81273" lon="2.36892">
        <ele>64.800003051758</ele>
        <time>2016-09-19T19:18:36.000Z</time>
      </trkpt>
      <trkpt lat="48.81279" lon="2.36917">
        <ele>64.800003051758</ele>
        <time>2016-09-19T19:18:40.000Z</time>
      </trkpt>
      <trkpt lat="48.81287" lon="2.36941">
        <ele>64.599998474121</ele>
        <time>2016-09-19T19:18:44.000Z</time>
      </trkpt>
      <trkpt lat="48.81305" lon="2.37004">
        <ele>64.199996948242</ele>
        <time>2016-09-19T19:19:01.000Z</time>
      </trkpt>
      <trkpt lat="48.81306" lon="2.37006">
        <ele>64.199996948242</ele>
        <time>2016-09-19T19:19:12.000Z</time>
      </trkpt>
      <trkpt lat="48.81313" lon="2.37079">
        <ele>63</ele>
        <time>2016-09-19T19:19:27.000Z</time>
      </trkpt>
      <trkpt lat="48.8134" lon="2.37142">
        <ele>63</ele>
        <time>2016-09-19T19:19:39.000Z</time>
      </trkpt>
      <trkpt lat="48.81351" lon="2.37171">
        <ele>63.200000762939</ele>
        <time>2016-09-19T19:19:44.000Z</time>
      </trkpt>
      <trkpt lat="48.81368" lon="2.37212">
        <ele>64</ele>
        <time>2016-09-19T19:19:51.000Z</time>
      </trkpt>
      <trkpt lat="48.81374" lon="2.3723">
        <ele>64.400001525879</ele>
        <time>2016-09-19T19:19:54.000Z</time>
      </trkpt>
      <trkpt lat="48.8138" lon="2.37241">
        <ele>64.599998474121</ele>
        <time>2016-09-19T19:19:56.000Z</time>
      </trkpt>
      <trkpt lat="48.81408" lon="2.37304">
        <ele>65</ele>
        <time>2016-09-19T19:20:04.000Z</time>
      </trkpt>
      <trkpt lat="48.81416" lon="2.37319">
        <ele>65</ele>
        <time>2016-09-19T19:20:06.000Z</time>
      </trkpt>
      <trkpt lat="48.81423" lon="2.37335">
        <ele>65</ele>
        <time>2016-09-19T19:20:08.000Z</time>
      </trkpt>
      <trkpt lat="48.81447" lon="2.37392">
        <ele>64.599998474121</ele>
        <time>2016-09-19T19:20:15.000Z</time>
      </trkpt>
      <trkpt lat="48.81479" lon="2.37454">
        <ele>63.599998474121</ele>
        <time>2016-09-19T19:20:22.000Z</time>
      </trkpt>
      <trkpt lat="48.81509" lon="2.37511">
        <ele>62.400001525879</ele>
        <time>2016-09-19T19:20:29.000Z</time>
      </trkpt>
      <trkpt lat="48.81529" lon="2.37563">
        <ele>61.200000762939</ele>
        <time>2016-09-19T19:21:20.000Z</time>
      </trkpt>
      <trkpt lat="48.81558" lon="2.3762">
        <ele>60.200000762939</ele>
        <time>2016-09-19T19:21:34.000Z</time>
      </trkpt>
      <trkpt lat="48.81572" lon="2.3765">
        <ele>59.599998474121</ele>
        <time>2016-09-19T19:21:40.000Z</time>
      </trkpt>
      <trkpt lat="48.81599" lon="2.37707">
        <ele>57.599998474121</ele>
        <time>2016-09-19T19:21:51.000Z</time>
      </trkpt>
      <trkpt lat="48.81599" lon="2.37718">
        <ele>57.200000762939</ele>
        <time>2016-09-19T19:21:56.000Z</time>
      </trkpt>
      <trkpt lat="48.81593" lon="2.37723">
        <ele>57</ele>
        <time>2016-09-19T19:21:59.000Z</time>
      </trkpt>
      <trkpt lat="48.81552" lon="2.37756">
        <ele>57</ele>
        <time>2016-09-19T19:22:19.000Z</time>
      </trkpt>
      <trkpt lat="48.81536" lon="2.37778">
        <ele>56.400001525879</ele>
        <time>2016-09-19T19:22:29.000Z</time>
      </trkpt>
      <trkpt lat="48.81502" lon="2.3783">
        <ele>55</ele>
        <time>2016-09-19T19:22:47.000Z</time>
      </trkpt>
      <trkpt lat="48.8147" lon="2.37864">
        <ele>54.200000762939</ele>
        <time>2016-09-19T19:22:57.000Z</time>
      </trkpt>
      <trkpt lat="48.81433" lon="2.37909">
        <ele>55.400001525879</ele>
        <time>2016-09-19T19:23:08.000Z</time>
      </trkpt>
      <trkpt lat="48.81402" lon="2.37958">
        <ele>51.599998474121</ele>
        <time>2016-09-19T19:23:20.000Z</time>
      </trkpt>
      <trkpt lat="48.81365" lon="2.38002">
        <ele>51</ele>
        <time>2016-09-19T19:23:31.000Z</time>
      </trkpt>
      <trkpt lat="48.81332" lon="2.38047">
        <ele>49.200000762939</ele>
        <time>2016-09-19T19:23:41.000Z</time>
      </trkpt>
      <trkpt lat="48.81298" lon="2.38094">
        <ele>48</ele>
        <time>2016-09-19T19:24:16.000Z</time>
      </trkpt>
      <trkpt lat="48.81304" lon="2.38136">
        <ele>45.200000762939</ele>
        <time>2016-09-19T19:26:25.000Z</time>
      </trkpt>
      <trkpt lat="48.81322" lon="2.38176">
        <ele>41.599998474121</ele>
        <time>2016-09-19T19:26:34.000Z</time>
      </trkpt>
      <trkpt lat="48.8133" lon="2.3819">
        <ele>40.400001525879</ele>
        <time>2016-09-19T19:26:36.000Z</time>
      </trkpt>
      <trkpt lat="48.81359" lon="2.38246">
        <ele>36</ele>
        <time>2016-09-19T19:26:44.000Z</time>
      </trkpt>
      <trkpt lat="48.81373" lon="2.38285">
        <ele>36.599998474121</ele>
        <time>2016-09-19T19:27:25.000Z</time>
      </trkpt>
      <trkpt lat="48.81331" lon="2.38321">
        <ele>38</ele>
        <time>2016-09-19T19:27:39.000Z</time>
      </trkpt>
      <trkpt lat="48.81304" lon="2.38352">
        <ele>37.400001525879</ele>
        <time>2016-09-19T19:27:47.000Z</time>
      </trkpt>
      <trkpt lat="48.8129" lon="2.38368">
        <ele>37.599998474121</ele>
        <time>2016-09-19T19:27:51.000Z</time>
      </trkpt>
      <trkpt lat="48.81284" lon="2.38376">
        <ele>38</ele>
        <time>2016-09-19T19:27:53.000Z</time>
      </trkpt>
      <trkpt lat="48.8126" lon="2.38396">
        <ele>38.799999237061</ele>
        <time>2016-09-19T19:27:59.000Z</time>
      </trkpt>
      <trkpt lat="48.81219" lon="2.38438">
        <ele>38.799999237061</ele>
        <time>2016-09-19T19:28:10.000Z</time>
      </trkpt>
      <trkpt lat="48.81184" lon="2.38479">
        <ele>40.799999237061</ele>
        <time>2016-09-19T19:28:32.000Z</time>
      </trkpt>
      <trkpt lat="48.81199" lon="2.38542">
        <ele>40.799999237061</ele>
        <time>2016-09-19T19:28:45.000Z</time>
      </trkpt>
      <trkpt lat="48.81208" lon="2.38553">
        <ele>40.200000762939</ele>
        <time>2016-09-19T19:28:48.000Z</time>
      </trkpt>
      <trkpt lat="48.81217" lon="2.38559">
        <ele>39.599998474121</ele>
        <time>2016-09-19T19:28:50.000Z</time>
      </trkpt>
      <trkpt lat="48.81223" lon="2.38567">
        <ele>39.400001525879</ele>
        <time>2016-09-19T19:28:52.000Z</time>
      </trkpt>
      <trkpt lat="48.81238" lon="2.38608">
        <ele>38.400001525879</ele>
        <time>2016-09-19T19:28:59.000Z</time>
      </trkpt>
      <trkpt lat="48.81253" lon="2.38656">
        <ele>37.200000762939</ele>
        <time>2016-09-19T19:29:06.000Z</time>
      </trkpt>
      <trkpt lat="48.81263" lon="2.38681">
        <ele>36.400001525879</ele>
        <time>2016-09-19T19:29:10.000Z</time>
      </trkpt>
      <trkpt lat="48.81292" lon="2.38734">
        <ele>35.400001525879</ele>
        <time>2016-09-19T19:29:19.000Z</time>
      </trkpt>
      <trkpt lat="48.81318" lon="2.38798">
        <ele>34.400001525879</ele>
        <time>2016-09-19T19:29:30.000Z</time>
      </trkpt>
      <trkpt lat="48.81333" lon="2.38837">
        <ele>34</ele>
        <time>2016-09-19T19:29:38.000Z</time>
      </trkpt>
      <trkpt lat="48.81345" lon="2.38862">
        <ele>34</ele>
        <time>2016-09-19T19:29:43.000Z</time>
      </trkpt>
      <trkpt lat="48.81361" lon="2.38899">
        <ele>34</ele>
        <time>2016-09-19T19:29:50.000Z</time>
      </trkpt>
      <trkpt lat="48.81366" lon="2.38911">
        <ele>33.799999237061</ele>
        <time>2016-09-19T19:29:52.000Z</time>
      </trkpt>
      <trkpt lat="48.81376" lon="2.38926">
        <ele>34</ele>
        <time>2016-09-19T19:29:55.000Z</time>
      </trkpt>
      <trkpt lat="48.8139" lon="2.38947">
        <ele>34.400001525879</ele>
        <time>2016-09-19T19:29:59.000Z</time>
      </trkpt>
      <trkpt lat="48.814" lon="2.38959">
        <ele>34.599998474121</ele>
        <time>2016-09-19T19:30:02.000Z</time>
      </trkpt>
      <trkpt lat="48.81415" lon="2.38978">
        <ele>34.799999237061</ele>
        <time>2016-09-19T19:30:06.000Z</time>
      </trkpt>
      <trkpt lat="48.81431" lon="2.39001">
        <ele>35</ele>
        <time>2016-09-19T19:30:10.000Z</time>
      </trkpt>
      <trkpt lat="48.81446" lon="2.39019">
        <ele>34.799999237061</ele>
        <time>2016-09-19T19:30:14.000Z</time>
      </trkpt>
      <trkpt lat="48.81455" lon="2.39027">
        <ele>34.599998474121</ele>
        <time>2016-09-19T19:30:16.000Z</time>
      </trkpt>
      <trkpt lat="48.81463" lon="2.39039">
        <ele>34.400001525879</ele>
        <time>2016-09-19T19:30:18.000Z</time>
      </trkpt>
      <trkpt lat="48.8148" lon="2.39074">
        <ele>34</ele>
        <time>2016-09-19T19:30:23.000Z</time>
      </trkpt>
      <trkpt lat="48.8149" lon="2.39095">
        <ele>34.200000762939</ele>
        <time>2016-09-19T19:30:26.000Z</time>
      </trkpt>
      <trkpt lat="48.81516" lon="2.39155">
        <ele>35</ele>
        <time>2016-09-19T19:30:34.000Z</time>
      </trkpt>
      <trkpt lat="48.81536" lon="2.39223">
        <ele>34.400001525879</ele>
        <time>2016-09-19T19:30:41.000Z</time>
      </trkpt>
      <trkpt lat="48.81554" lon="2.39286">
        <ele>33.799999237061</ele>
        <time>2016-09-19T19:30:50.000Z</time>
      </trkpt>
      <trkpt lat="48.81558" lon="2.39303">
        <ele>33.599998474121</ele>
        <time>2016-09-19T19:30:53.000Z</time>
      </trkpt>
      <trkpt lat="48.81572" lon="2.39351">
        <ele>33.599998474121</ele>
        <time>2016-09-19T19:31:01.000Z</time>
      </trkpt>
      <trkpt lat="48.81603" lon="2.39407">
        <ele>34</ele>
        <time>2016-09-19T19:31:12.000Z</time>
      </trkpt>
      <trkpt lat="48.81632" lon="2.39464">
        <ele>33.400001525879</ele>
        <time>2016-09-19T19:31:23.000Z</time>
      </trkpt>
      <trkpt lat="48.81658" lon="2.3951">
        <ele>33.200000762939</ele>
        <time>2016-09-19T19:33:53.000Z</time>
      </trkpt>
      <trkpt lat="48.81661" lon="2.39512">
        <ele>33.200000762939</ele>
        <time>2016-09-19T19:33:56.000Z</time>
      </trkpt>
      <trkpt lat="48.81692" lon="2.39565">
        <ele>33.799999237061</ele>
        <time>2016-09-19T19:34:14.000Z</time>
      </trkpt>
      <trkpt lat="48.81722" lon="2.39621">
        <ele>34.799999237061</ele>
        <time>2016-09-19T19:34:28.000Z</time>
      </trkpt>
      <trkpt lat="48.81733" lon="2.39644">
        <ele>35</ele>
        <time>2016-09-19T19:34:33.000Z</time>
      </trkpt>
      <trkpt lat="48.81765" lon="2.39695">
        <ele>35.400001525879</ele>
        <time>2016-09-19T19:34:44.000Z</time>
      </trkpt>
      <trkpt lat="48.81795" lon="2.39747">
        <ele>35</ele>
        <time>2016-09-19T19:34:54.000Z</time>
      </trkpt>
      <trkpt lat="48.81823" lon="2.39805">
        <ele>35</ele>
        <time>2016-09-19T19:35:06.000Z</time>
      </trkpt>
      <trkpt lat="48.81853" lon="2.39857">
        <ele>35.400001525879</ele>
        <time>2016-09-19T19:35:17.000Z</time>
      </trkpt>
      <trkpt lat="48.81886" lon="2.39904">
        <ele>33.599998474121</ele>
        <time>2016-09-19T19:35:27.000Z</time>
      </trkpt>
      <trkpt lat="48.81902" lon="2.39923">
        <ele>32.599998474121</ele>
        <time>2016-09-19T19:35:46.000Z</time>
      </trkpt>
      <trkpt lat="48.81911" lon="2.39944">
        <ele>32</ele>
        <time>2016-09-19T19:35:50.000Z</time>
      </trkpt>
      <trkpt lat="48.81936" lon="2.39959">
        <ele>30.200000762939</ele>
        <time>2016-09-19T19:35:58.000Z</time>
      </trkpt>
      <trkpt lat="48.81952" lon="2.39971">
        <ele>30</ele>
        <time>2016-09-19T19:36:02.000Z</time>
      </trkpt>
      <trkpt lat="48.8196" lon="2.39982">
        <ele>30</ele>
        <time>2016-09-19T19:36:04.000Z</time>
      </trkpt>
      <trkpt lat="48.81978" lon="2.40007">
        <ele>30.200000762939</ele>
        <time>2016-09-19T19:36:08.000Z</time>
      </trkpt>
      <trkpt lat="48.81997" lon="2.40027">
        <ele>30.60000038147</ele>
        <time>2016-09-19T19:36:12.000Z</time>
      </trkpt>
      <trkpt lat="48.82011" lon="2.40042">
        <ele>31</ele>
        <time>2016-09-19T19:36:15.000Z</time>
      </trkpt>
      <trkpt lat="48.82051" lon="2.40079">
        <ele>32</ele>
        <time>2016-09-19T19:36:24.000Z</time>
      </trkpt>
      <trkpt lat="48.82069" lon="2.40092">
        <ele>32.599998474121</ele>
        <time>2016-09-19T19:36:28.000Z</time>
      </trkpt>
      <trkpt lat="48.82088" lon="2.40108">
        <ele>33.200000762939</ele>
        <time>2016-09-19T19:36:32.000Z</time>
      </trkpt>
      <trkpt lat="48.82126" lon="2.4015">
        <ele>35.599998474121</ele>
        <time>2016-09-19T19:36:40.000Z</time>
      </trkpt>
      <trkpt lat="48.82131" lon="2.40157">
        <ele>36</ele>
        <time>2016-09-19T19:36:41.000Z</time>
      </trkpt>
      <trkpt lat="48.82168" lon="2.40202">
        <ele>40.400001525879</ele>
        <time>2016-09-19T19:36:48.000Z</time>
      </trkpt>
      <trkpt lat="48.82176" lon="2.40213">
        <ele>41.400001525879</ele>
        <time>2016-09-19T19:36:50.000Z</time>
      </trkpt>
      <trkpt lat="48.82184" lon="2.40224">
        <ele>42.599998474121</ele>
        <time>2016-09-19T19:36:52.000Z</time>
      </trkpt>
      <trkpt lat="48.82221" lon="2.4027">
        <ele>46.799999237061</ele>
        <time>2016-09-19T19:37:02.000Z</time>
      </trkpt>
      <trkpt lat="48.82259" lon="2.40312">
        <ele>49.200000762939</ele>
        <time>2016-09-19T19:37:13.000Z</time>
      </trkpt>
      <trkpt lat="48.82275" lon="2.40332">
        <ele>49.799999237061</ele>
        <time>2016-09-19T19:38:42.000Z</time>
      </trkpt>
      <trkpt lat="48.82314" lon="2.40376">
        <ele>50.200000762939</ele>
        <time>2016-09-19T19:38:55.000Z</time>
      </trkpt>
      <trkpt lat="48.82354" lon="2.40418">
        <ele>50</ele>
        <time>2016-09-19T19:39:06.000Z</time>
      </trkpt>
      <trkpt lat="48.82376" lon="2.40454">
        <ele>48</ele>
        <time>2016-09-19T19:39:12.000Z</time>
      </trkpt>
      <trkpt lat="48.82386" lon="2.40471">
        <ele>47.200000762939</ele>
        <time>2016-09-19T19:39:15.000Z</time>
      </trkpt>
      <trkpt lat="48.82396" lon="2.40483">
        <ele>46.200000762939</ele>
        <time>2016-09-19T19:39:18.000Z</time>
      </trkpt>
      <trkpt lat="48.82418" lon="2.40509">
        <ele>44.799999237061</ele>
        <time>2016-09-19T19:39:26.000Z</time>
      </trkpt>
      <trkpt lat="48.82457" lon="2.40548">
        <ele>46</ele>
        <time>2016-09-19T19:39:42.000Z</time>
      </trkpt>
      <trkpt lat="48.82497" lon="2.40583">
        <ele>50.599998474121</ele>
        <time>2016-09-19T19:40:03.000Z</time>
      </trkpt>
      <trkpt lat="48.8252" lon="2.40611">
        <ele>52.799999237061</ele>
        <time>2016-09-19T19:40:11.000Z</time>
      </trkpt>
      <trkpt lat="48.82556" lon="2.40655">
        <ele>54.200000762939</ele>
        <time>2016-09-19T19:40:20.000Z</time>
      </trkpt>
      <trkpt lat="48.82596" lon="2.40691">
        <ele>54.799999237061</ele>
        <time>2016-09-19T19:40:35.000Z</time>
      </trkpt>
      <trkpt lat="48.82634" lon="2.40731">
        <ele>53.400001525879</ele>
        <time>2016-09-19T19:40:49.000Z</time>
      </trkpt>
      <trkpt lat="48.82652" lon="2.40745">
        <ele>52.599998474121</ele>
        <time>2016-09-19T19:40:58.000Z</time>
      </trkpt>
      <trkpt lat="48.82687" lon="2.40701">
        <ele>53.799999237061</ele>
        <time>2016-09-19T19:41:17.000Z</time>
      </trkpt>
      <trkpt lat="48.82719" lon="2.40653">
        <ele>55</ele>
        <time>2016-09-19T19:41:29.000Z</time>
      </trkpt>
      <trkpt lat="48.82754" lon="2.40607">
        <ele>55.799999237061</ele>
        <time>2016-09-19T19:41:39.000Z</time>
      </trkpt>
      <trkpt lat="48.82791" lon="2.40556">
        <ele>56</ele>
        <time>2016-09-19T19:41:49.000Z</time>
      </trkpt>
      <trkpt lat="48.82823" lon="2.40506">
        <ele>54.400001525879</ele>
        <time>2016-09-19T19:41:58.000Z</time>
      </trkpt>
      <trkpt lat="48.82855" lon="2.40456">
        <ele>52.599998474121</ele>
        <time>2016-09-19T19:42:07.000Z</time>
      </trkpt>
      <trkpt lat="48.82884" lon="2.40404">
        <ele>53.799999237061</ele>
        <time>2016-09-19T19:42:16.000Z</time>
      </trkpt>
      <trkpt lat="48.829" lon="2.40377">
        <ele>54.200000762939</ele>
        <time>2016-09-19T19:42:21.000Z</time>
      </trkpt>
      <trkpt lat="48.82906" lon="2.40366">
        <ele>54</ele>
        <time>2016-09-19T19:42:23.000Z</time>
      </trkpt>
      <trkpt lat="48.82917" lon="2.40342">
        <ele>53.799999237061</ele>
        <time>2016-09-19T19:42:27.000Z</time>
      </trkpt>
      <trkpt lat="48.8292" lon="2.40329">
        <ele>53.599998474121</ele>
        <time>2016-09-19T19:42:29.000Z</time>
      </trkpt>
      <trkpt lat="48.82926" lon="2.40304">
        <ele>53.599998474121</ele>
        <time>2016-09-19T19:42:33.000Z</time>
      </trkpt>
      <trkpt lat="48.82948" lon="2.4024">
        <ele>53.400001525879</ele>
        <time>2016-09-19T19:42:43.000Z</time>
      </trkpt>
      <trkpt lat="48.82963" lon="2.40196">
        <ele>52.200000762939</ele>
        <time>2016-09-19T19:42:49.000Z</time>
      </trkpt>
      <trkpt lat="48.82973" lon="2.40129">
        <ele>48.400001525879</ele>
        <time>2016-09-19T19:43:00.000Z</time>
      </trkpt>
      <trkpt lat="48.82975" lon="2.40112">
        <ele>47.799999237061</ele>
        <time>2016-09-19T19:43:58.000Z</time>
      </trkpt>
      <trkpt lat="48.83002" lon="2.40062">
        <ele>47.200000762939</ele>
        <time>2016-09-19T19:44:10.000Z</time>
      </trkpt>
      <trkpt lat="48.83027" lon="2.40024">
        <ele>49</ele>
        <time>2016-09-19T19:44:17.000Z</time>
      </trkpt>
      <trkpt lat="48.83047" lon="2.3999">
        <ele>48.799999237061</ele>
        <time>2016-09-19T19:44:23.000Z</time>
      </trkpt>
      <trkpt lat="48.83082" lon="2.39943">
        <ele>46.599998474121</ele>
        <time>2016-09-19T19:44:33.000Z</time>
      </trkpt>
      <trkpt lat="48.83116" lon="2.39889">
        <ele>45.200000762939</ele>
        <time>2016-09-19T19:44:43.000Z</time>
      </trkpt>
      <trkpt lat="48.8312" lon="2.39884">
        <ele>45</ele>
        <time>2016-09-19T19:44:44.000Z</time>
      </trkpt>
      <trkpt lat="48.83143" lon="2.39852">
        <ele>45</ele>
        <time>2016-09-19T19:44:51.000Z</time>
      </trkpt>
      <trkpt lat="48.83151" lon="2.39847">
        <ele>45.400001525879</ele>
        <time>2016-09-19T19:44:53.000Z</time>
      </trkpt>
      <trkpt lat="48.8317" lon="2.39817">
        <ele>45.799999237061</ele>
        <time>2016-09-19T19:45:05.000Z</time>
      </trkpt>
      <trkpt lat="48.83177" lon="2.39822">
        <ele>46.599998474121</ele>
        <time>2016-09-19T19:46:14.000Z</time>
      </trkpt>
      <trkpt lat="48.83208" lon="2.39875">
        <ele>48.799999237061</ele>
        <time>2016-09-19T19:46:29.000Z</time>
      </trkpt>
      <trkpt lat="48.83225" lon="2.39912">
        <ele>49.400001525879</ele>
        <time>2016-09-19T19:46:35.000Z</time>
      </trkpt>
      <trkpt lat="48.8325" lon="2.39969">
        <ele>49</ele>
        <time>2016-09-19T19:46:43.000Z</time>
      </trkpt>
      <trkpt lat="48.83269" lon="2.40013">
        <ele>48.599998474121</ele>
        <time>2016-09-19T19:46:49.000Z</time>
      </trkpt>
      <trkpt lat="48.83294" lon="2.40079">
        <ele>48.200000762939</ele>
        <time>2016-09-19T19:46:57.000Z</time>
      </trkpt>
      <trkpt lat="48.8332" lon="2.40141">
        <ele>47.799999237061</ele>
        <time>2016-09-19T19:47:04.000Z</time>
      </trkpt>
      <trkpt lat="48.83338" lon="2.40194">
        <ele>46.799999237061</ele>
        <time>2016-09-19T19:47:11.000Z</time>
      </trkpt>
      <trkpt lat="48.83339" lon="2.40209">
        <ele>46.200000762939</ele>
        <time>2016-09-19T19:47:13.000Z</time>
      </trkpt>
      <trkpt lat="48.83312" lon="2.40267">
        <ele>44.599998474121</ele>
        <time>2016-09-19T19:47:25.000Z</time>
      </trkpt>
      <trkpt lat="48.83299" lon="2.40288">
        <ele>44.599998474121</ele>
        <time>2016-09-19T19:47:30.000Z</time>
      </trkpt>
      <trkpt lat="48.8329" lon="2.40298">
        <ele>45</ele>
        <time>2016-09-19T19:47:32.000Z</time>
      </trkpt>
      <trkpt lat="48.83257" lon="2.40345">
        <ele>46.799999237061</ele>
        <time>2016-09-19T19:47:42.000Z</time>
      </trkpt>
      <trkpt lat="48.83224" lon="2.40381">
        <ele>49.200000762939</ele>
        <time>2016-09-19T19:48:33.000Z</time>
      </trkpt>
      <trkpt lat="48.8323" lon="2.40389">
        <ele>49.400001525879</ele>
        <time>2016-09-19T19:48:44.000Z</time>
      </trkpt>
      <trkpt lat="48.83246" lon="2.40413">
        <ele>50.599998474121</ele>
        <time>2016-09-19T19:48:51.000Z</time>
      </trkpt>
      <trkpt lat="48.83261" lon="2.40422">
        <ele>50.400001525879</ele>
        <time>2016-09-19T19:48:55.000Z</time>
      </trkpt>
      <trkpt lat="48.83287" lon="2.40436">
        <ele>51.200000762939</ele>
        <time>2016-09-19T19:49:01.000Z</time>
      </trkpt>
      <trkpt lat="48.833" lon="2.40446">
        <ele>52</ele>
        <time>2016-09-19T19:49:04.000Z</time>
      </trkpt>
      <trkpt lat="48.83304" lon="2.4046">
        <ele>52.400001525879</ele>
        <time>2016-09-19T19:49:06.000Z</time>
      </trkpt>
      <trkpt lat="48.83318" lon="2.40509">
        <ele>53.400001525879</ele>
        <time>2016-09-19T19:49:12.000Z</time>
      </trkpt>
      <trkpt lat="48.83332" lon="2.4056">
        <ele>53.200000762939</ele>
        <time>2016-09-19T19:49:18.000Z</time>
      </trkpt>
      <trkpt lat="48.83358" lon="2.40615">
        <ele>54</ele>
        <time>2016-09-19T19:49:26.000Z</time>
      </trkpt>
      <trkpt lat="48.83366" lon="2.40628">
        <ele>54.200000762939</ele>
        <time>2016-09-19T19:49:28.000Z</time>
      </trkpt>
      <trkpt lat="48.83395" lon="2.40675">
        <ele>54.400001525879</ele>
        <time>2016-09-19T19:49:35.000Z</time>
      </trkpt>
      <trkpt lat="48.83427" lon="2.40732">
        <ele>54.799999237061</ele>
        <time>2016-09-19T19:49:43.000Z</time>
      </trkpt>
      <trkpt lat="48.83443" lon="2.40755">
        <ele>54.799999237061</ele>
        <time>2016-09-19T19:49:47.000Z</time>
      </trkpt>
      <trkpt lat="48.83483" lon="2.40794">
        <ele>54</ele>
        <time>2016-09-19T19:49:56.000Z</time>
      </trkpt>
      <trkpt lat="48.83503" lon="2.40822">
        <ele>53.400001525879</ele>
        <time>2016-09-19T19:50:05.000Z</time>
      </trkpt>
      <trkpt lat="48.83481" lon="2.40868">
        <ele>53</ele>
        <time>2016-09-19T19:50:18.000Z</time>
      </trkpt>
      <trkpt lat="48.83455" lon="2.40928">
        <ele>50.200000762939</ele>
        <time>2016-09-19T19:50:30.000Z</time>
      </trkpt>
      <trkpt lat="48.8343" lon="2.40989">
        <ele>49</ele>
        <time>2016-09-19T19:50:43.000Z</time>
      </trkpt>
      <trkpt lat="48.83409" lon="2.4105">
        <ele>47.599998474121</ele>
        <time>2016-09-19T19:50:57.000Z</time>
      </trkpt>
      <trkpt lat="48.83424" lon="2.41113">
        <ele>48.599998474121</ele>
        <time>2016-09-19T19:51:20.000Z</time>
      </trkpt>
      <trkpt lat="48.83438" lon="2.41151">
        <ele>49.599998474121</ele>
        <time>2016-09-19T19:51:28.000Z</time>
      </trkpt>
      <trkpt lat="48.83453" lon="2.41222">
        <ele>51.400001525879</ele>
        <time>2016-09-19T19:51:40.000Z</time>
      </trkpt>
      <trkpt lat="48.83474" lon="2.41289">
        <ele>52.200000762939</ele>
        <time>2016-09-19T19:51:50.000Z</time>
      </trkpt>
      <trkpt lat="48.83496" lon="2.41355">
        <ele>53</ele>
        <time>2016-09-19T19:52:01.000Z</time>
      </trkpt>
      <trkpt lat="48.83507" lon="2.41387">
        <ele>52.599998474121</ele>
        <time>2016-09-19T19:52:06.000Z</time>
      </trkpt>
      <trkpt lat="48.83529" lon="2.41449">
        <ele>53.400001525879</ele>
        <time>2016-09-19T19:52:15.000Z</time>
      </trkpt>
      <trkpt lat="48.83549" lon="2.41512">
        <ele>55.799999237061</ele>
        <time>2016-09-19T19:52:23.000Z</time>
      </trkpt>
      <trkpt lat="48.83568" lon="2.41575">
        <ele>56.400001525879</ele>
        <time>2016-09-19T19:52:30.000Z</time>
      </trkpt>
      <trkpt lat="48.83586" lon="2.41638">
        <ele>55</ele>
        <time>2016-09-19T19:52:37.000Z</time>
      </trkpt>
      <trkpt lat="48.83602" lon="2.41708">
        <ele>55.400001525879</ele>
        <time>2016-09-19T19:52:45.000Z</time>
      </trkpt>
      <trkpt lat="48.83621" lon="2.41776">
        <ele>56.599998474121</ele>
        <time>2016-09-19T19:52:53.000Z</time>
      </trkpt>
      <trkpt lat="48.83623" lon="2.41785">
        <ele>56.599998474121</ele>
        <time>2016-09-19T19:52:54.000Z</time>
      </trkpt>
      <trkpt lat="48.83644" lon="2.41848">
        <ele>57.400001525879</ele>
        <time>2016-09-19T19:53:03.000Z</time>
      </trkpt>
      <trkpt lat="48.8365" lon="2.41864">
        <ele>57.599998474121</ele>
        <time>2016-09-19T19:53:39.000Z</time>
      </trkpt>
      <trkpt lat="48.83652" lon="2.41866">
        <ele>57.599998474121</ele>
        <time>2016-09-19T19:53:41.000Z</time>
      </trkpt>
      <trkpt lat="48.83663" lon="2.41902">
        <ele>57.599998474121</ele>
        <time>2016-09-19T19:53:49.000Z</time>
      </trkpt>
      <trkpt lat="48.8368" lon="2.41964">
        <ele>57.400001525879</ele>
        <time>2016-09-19T19:54:00.000Z</time>
      </trkpt>
      <trkpt lat="48.83692" lon="2.42034">
        <ele>56.599998474121</ele>
        <time>2016-09-19T19:54:11.000Z</time>
      </trkpt>
      <trkpt lat="48.83708" lon="2.42102">
        <ele>56</ele>
        <time>2016-09-19T19:54:25.000Z</time>
      </trkpt>
      <trkpt lat="48.83748" lon="2.42135">
        <ele>56.200000762939</ele>
        <time>2016-09-19T19:54:41.000Z</time>
      </trkpt>
      <trkpt lat="48.83795" lon="2.42136">
        <ele>56.799999237061</ele>
        <time>2016-09-19T19:54:52.000Z</time>
      </trkpt>
      <trkpt lat="48.838" lon="2.42136">
        <ele>56.799999237061</ele>
        <time>2016-09-19T19:54:53.000Z</time>
      </trkpt>
      <trkpt lat="48.83846" lon="2.4212">
        <ele>57.599998474121</ele>
        <time>2016-09-19T19:55:02.000Z</time>
      </trkpt>
      <trkpt lat="48.83892" lon="2.42114">
        <ele>57.599998474121</ele>
        <time>2016-09-19T19:55:12.000Z</time>
      </trkpt>
      <trkpt lat="48.83937" lon="2.42094">
        <ele>56.599998474121</ele>
        <time>2016-09-19T19:55:22.000Z</time>
      </trkpt>
      <trkpt lat="48.83951" lon="2.4209">
        <ele>56.200000762939</ele>
        <time>2016-09-19T19:55:25.000Z</time>
      </trkpt>
      <trkpt lat="48.83971" lon="2.42081">
        <ele>55.799999237061</ele>
        <time>2016-09-19T19:55:29.000Z</time>
      </trkpt>
      <trkpt lat="48.84018" lon="2.4206">
        <ele>54.200000762939</ele>
        <time>2016-09-19T19:55:38.000Z</time>
      </trkpt>
      <trkpt lat="48.84063" lon="2.42028">
        <ele>54.200000762939</ele>
        <time>2016-09-19T19:55:46.000Z</time>
      </trkpt>
      <trkpt lat="48.84079" lon="2.42014">
        <ele>54.400001525879</ele>
        <time>2016-09-19T19:55:49.000Z</time>
      </trkpt>
      <trkpt lat="48.84102" lon="2.41985">
        <ele>54.799999237061</ele>
        <time>2016-09-19T19:55:54.000Z</time>
      </trkpt>
      <trkpt lat="48.84145" lon="2.41957">
        <ele>51.200000762939</ele>
        <time>2016-09-19T19:56:02.000Z</time>
      </trkpt>
      <trkpt lat="48.84194" lon="2.41943">
        <ele>51.200000762939</ele>
        <time>2016-09-19T19:56:11.000Z</time>
      </trkpt>
      <trkpt lat="48.8421" lon="2.4194">
        <ele>52.400001525879</ele>
        <time>2016-09-19T19:56:14.000Z</time>
      </trkpt>
      <trkpt lat="48.84224" lon="2.4194">
        <ele>53</ele>
        <time>2016-09-19T19:56:17.000Z</time>
      </trkpt>
      <trkpt lat="48.84243" lon="2.41934">
        <ele>53.799999237061</ele>
        <time>2016-09-19T19:56:21.000Z</time>
      </trkpt>
      <trkpt lat="48.84289" lon="2.41953">
        <ele>54.799999237061</ele>
        <time>2016-09-19T19:56:32.000Z</time>
      </trkpt>
      <trkpt lat="48.84331" lon="2.41963">
        <ele>55.200000762939</ele>
        <time>2016-09-19T19:57:26.000Z</time>
      </trkpt>
      <trkpt lat="48.84337" lon="2.41946">
        <ele>55.400001525879</ele>
        <time>2016-09-19T19:57:31.000Z</time>
      </trkpt>
      <trkpt lat="48.84354" lon="2.41878">
        <ele>54.599998474121</ele>
        <time>2016-09-19T19:57:45.000Z</time>
      </trkpt>
      <trkpt lat="48.84365" lon="2.41809">
        <ele>52.799999237061</ele>
        <time>2016-09-19T19:58:00.000Z</time>
      </trkpt>
      <trkpt lat="48.84394" lon="2.4176">
        <ele>52.599998474121</ele>
        <time>2016-09-19T19:58:17.000Z</time>
      </trkpt>
      <trkpt lat="48.8444" lon="2.41753">
        <ele>54.200000762939</ele>
        <time>2016-09-19T19:58:30.000Z</time>
      </trkpt>
      <trkpt lat="48.84485" lon="2.41753">
        <ele>56.200000762939</ele>
        <time>2016-09-19T19:58:40.000Z</time>
      </trkpt>
      <trkpt lat="48.84526" lon="2.41751">
        <ele>58</ele>
        <time>2016-09-19T19:58:50.000Z</time>
      </trkpt>
      <trkpt lat="48.84573" lon="2.41753">
        <ele>58</ele>
        <time>2016-09-19T19:59:00.000Z</time>
      </trkpt>
      <trkpt lat="48.8461" lon="2.41751">
        <ele>57.799999237061</ele>
        <time>2016-09-19T19:59:16.000Z</time>
      </trkpt>
      <trkpt lat="48.84624" lon="2.41743">
        <ele>57.400001525879</ele>
        <time>2016-09-19T19:59:28.000Z</time>
      </trkpt>
      <trkpt lat="48.8463" lon="2.41762">
        <ele>57.400001525879</ele>
        <time>2016-09-19T19:59:58.000Z</time>
      </trkpt>
      <trkpt lat="48.84647" lon="2.41766">
        <ele>56.799999237061</ele>
        <time>2016-09-19T20:00:05.000Z</time>
      </trkpt>
      <trkpt lat="48.84654" lon="2.4174">
        <ele>56.200000762939</ele>
        <time>2016-09-19T20:00:10.000Z</time>
      </trkpt>
      <trkpt lat="48.84655" lon="2.41727">
        <ele>57</ele>
        <time>2016-09-19T20:00:12.000Z</time>
      </trkpt>
      <trkpt lat="48.84659" lon="2.41707">
        <ele>56.799999237061</ele>
        <time>2016-09-19T20:00:15.000Z</time>
      </trkpt>
      <trkpt lat="48.84668" lon="2.41637">
        <ele>53.599998474121</ele>
        <time>2016-09-19T20:00:24.000Z</time>
      </trkpt>
      <trkpt lat="48.84677" lon="2.41569">
        <ele>53.200000762939</ele>
        <time>2016-09-19T20:00:33.000Z</time>
      </trkpt>
      <trkpt lat="48.84698" lon="2.41509">
        <ele>50.400001525879</ele>
        <time>2016-09-19T20:00:46.000Z</time>
      </trkpt>
      <trkpt lat="48.84701" lon="2.41505">
        <ele>50.200000762939</ele>
        <time>2016-09-19T20:00:47.000Z</time>
      </trkpt>
      <trkpt lat="48.84707" lon="2.41438">
        <ele>47.799999237061</ele>
        <time>2016-09-19T20:01:01.000Z</time>
      </trkpt>
      <trkpt lat="48.84681" lon="2.41393">
        <ele>48.200000762939</ele>
        <time>2016-09-19T20:01:19.000Z</time>
      </trkpt>
      <trkpt lat="48.84634" lon="2.41392">
        <ele>49.200000762939</ele>
        <time>2016-09-19T20:01:55.000Z</time>
      </trkpt>
      <trkpt lat="48.84622" lon="2.41396">
        <ele>49.599998474121</ele>
        <time>2016-09-19T20:02:28.000Z</time>
      </trkpt>
      <trkpt lat="48.84594" lon="2.41397">
        <ele>50.400001525879</ele>
        <time>2016-09-19T20:02:37.000Z</time>
      </trkpt>
      <trkpt lat="48.84541" lon="2.41393">
        <ele>51</ele>
        <time>2016-09-19T20:02:44.000Z</time>
      </trkpt>
      <trkpt lat="48.84487" lon="2.41386">
        <ele>50.799999237061</ele>
        <time>2016-09-19T20:02:49.000Z</time>
      </trkpt>
      <trkpt lat="48.84446" lon="2.41387">
        <ele>49.200000762939</ele>
        <time>2016-09-19T20:02:53.000Z</time>
      </trkpt>
      <trkpt lat="48.84426" lon="2.41387">
        <ele>48.799999237061</ele>
        <time>2016-09-19T20:02:55.000Z</time>
      </trkpt>
      <trkpt lat="48.84373" lon="2.41377">
        <ele>48.400001525879</ele>
        <time>2016-09-19T20:03:01.000Z</time>
      </trkpt>
      <trkpt lat="48.84327" lon="2.41369">
        <ele>48.799999237061</ele>
        <time>2016-09-19T20:03:06.000Z</time>
      </trkpt>
      <trkpt lat="48.84295" lon="2.41367">
        <ele>49.400001525879</ele>
        <time>2016-09-19T20:03:10.000Z</time>
      </trkpt>
      <trkpt lat="48.84279" lon="2.41365">
        <ele>49.799999237061</ele>
        <time>2016-09-19T20:03:12.000Z</time>
      </trkpt>
      <trkpt lat="48.84231" lon="2.41364">
        <ele>47</ele>
        <time>2016-09-19T20:03:18.000Z</time>
      </trkpt>
      <trkpt lat="48.84182" lon="2.41358">
        <ele>45.200000762939</ele>
        <time>2016-09-19T20:03:26.000Z</time>
      </trkpt>
      <trkpt lat="48.84132" lon="2.41351">
        <ele>45</ele>
        <time>2016-09-19T20:03:33.000Z</time>
      </trkpt>
      <trkpt lat="48.8409" lon="2.41348">
        <ele>44.599998474121</ele>
        <time>2016-09-19T20:03:38.000Z</time>
      </trkpt>
      <trkpt lat="48.84065" lon="2.41343">
        <ele>44.799999237061</ele>
        <time>2016-09-19T20:03:41.000Z</time>
      </trkpt>
      <trkpt lat="48.84016" lon="2.41334">
        <ele>45.200000762939</ele>
        <time>2016-09-19T20:03:48.000Z</time>
      </trkpt>
      <trkpt lat="48.83995" lon="2.41329">
        <ele>45.599998474121</ele>
        <time>2016-09-19T20:03:51.000Z</time>
      </trkpt>
      <trkpt lat="48.83948" lon="2.41318">
        <ele>46.599998474121</ele>
        <time>2016-09-19T20:03:58.000Z</time>
      </trkpt>
      <trkpt lat="48.83898" lon="2.41306">
        <ele>47.799999237061</ele>
        <time>2016-09-19T20:04:05.000Z</time>
      </trkpt>
      <trkpt lat="48.83849" lon="2.41294">
        <ele>49.400001525879</ele>
        <time>2016-09-19T20:04:12.000Z</time>
      </trkpt>
      <trkpt lat="48.83803" lon="2.41281">
        <ele>50.599998474121</ele>
        <time>2016-09-19T20:04:19.000Z</time>
      </trkpt>
      <trkpt lat="48.83758" lon="2.41267">
        <ele>50.799999237061</ele>
        <time>2016-09-19T20:04:26.000Z</time>
      </trkpt>
      <trkpt lat="48.83711" lon="2.41251">
        <ele>50.200000762939</ele>
        <time>2016-09-19T20:04:33.000Z</time>
      </trkpt>
      <trkpt lat="48.83665" lon="2.41236">
        <ele>49.799999237061</ele>
        <time>2016-09-19T20:04:40.000Z</time>
      </trkpt>
      <trkpt lat="48.83613" lon="2.41215">
        <ele>49.599998474121</ele>
        <time>2016-09-19T20:04:47.000Z</time>
      </trkpt>
      <trkpt lat="48.83567" lon="2.41177">
        <ele>48.799999237061</ele>
        <time>2016-09-19T20:04:53.000Z</time>
      </trkpt>
      <trkpt lat="48.83527" lon="2.41132">
        <ele>47.799999237061</ele>
        <time>2016-09-19T20:04:58.000Z</time>
      </trkpt>
      <trkpt lat="48.83493" lon="2.41083">
        <ele>46.799999237061</ele>
        <time>2016-09-19T20:05:03.000Z</time>
      </trkpt>
      <trkpt lat="48.83465" lon="2.41029">
        <ele>48</ele>
        <time>2016-09-19T20:05:12.000Z</time>
      </trkpt>
      <trkpt lat="48.83453" lon="2.41018">
        <ele>48.400001525879</ele>
        <time>2016-09-19T20:05:20.000Z</time>
      </trkpt>
      <trkpt lat="48.83448" lon="2.40991">
        <ele>49.400001525879</ele>
        <time>2016-09-19T20:07:28.000Z</time>
      </trkpt>
      <trkpt lat="48.83466" lon="2.40924">
        <ele>50.599998474121</ele>
        <time>2016-09-19T20:07:45.000Z</time>
      </trkpt>
      <trkpt lat="48.83489" lon="2.40863">
        <ele>53</ele>
        <time>2016-09-19T20:07:58.000Z</time>
      </trkpt>
      <trkpt lat="48.83501" lon="2.4084">
        <ele>53.200000762939</ele>
        <time>2016-09-19T20:08:03.000Z</time>
      </trkpt>
      <trkpt lat="48.83532" lon="2.40782">
        <ele>52.200000762939</ele>
        <time>2016-09-19T20:08:15.000Z</time>
      </trkpt>
      <trkpt lat="48.83552" lon="2.4072">
        <ele>51.400001525879</ele>
        <time>2016-09-19T20:08:27.000Z</time>
      </trkpt>
      <trkpt lat="48.83559" lon="2.40696">
        <ele>51</ele>
        <time>2016-09-19T20:09:00.000Z</time>
      </trkpt>
      <trkpt lat="48.83568" lon="2.40641">
        <ele>47.799999237061</ele>
        <time>2016-09-19T20:09:12.000Z</time>
      </trkpt>
      <trkpt lat="48.83575" lon="2.40617">
        <ele>46.799999237061</ele>
        <time>2016-09-19T20:09:16.000Z</time>
      </trkpt>
      <trkpt lat="48.83598" lon="2.40551">
        <ele>44.200000762939</ele>
        <time>2016-09-19T20:09:27.000Z</time>
      </trkpt>
      <trkpt lat="48.83624" lon="2.40492">
        <ele>43.400001525879</ele>
        <time>2016-09-19T20:09:35.000Z</time>
      </trkpt>
      <trkpt lat="48.83629" lon="2.40477">
        <ele>43.200000762939</ele>
        <time>2016-09-19T20:09:37.000Z</time>
      </trkpt>
      <trkpt lat="48.83654" lon="2.40413">
        <ele>42.200000762939</ele>
        <time>2016-09-19T20:09:46.000Z</time>
      </trkpt>
      <trkpt lat="48.83676" lon="2.4036">
        <ele>43</ele>
        <time>2016-09-19T20:09:58.000Z</time>
      </trkpt>
      <trkpt lat="48.83696" lon="2.40298">
        <ele>45</ele>
        <time>2016-09-19T20:10:11.000Z</time>
      </trkpt>
      <trkpt lat="48.8372" lon="2.40241">
        <ele>45.599998474121</ele>
        <time>2016-09-19T20:10:22.000Z</time>
      </trkpt>
      <trkpt lat="48.83734" lon="2.40202">
        <ele>45.200000762939</ele>
        <time>2016-09-19T20:10:28.000Z</time>
      </trkpt>
      <trkpt lat="48.83759" lon="2.40138">
        <ele>47.200000762939</ele>
        <time>2016-09-19T20:10:36.000Z</time>
      </trkpt>
      <trkpt lat="48.83772" lon="2.40107">
        <ele>47.599998474121</ele>
        <time>2016-09-19T20:10:40.000Z</time>
      </trkpt>
      <trkpt lat="48.83783" lon="2.40085">
        <ele>48.400001525879</ele>
        <time>2016-09-19T20:10:43.000Z</time>
      </trkpt>
      <trkpt lat="48.83789" lon="2.40072">
        <ele>49.200000762939</ele>
        <time>2016-09-19T20:10:45.000Z</time>
      </trkpt>
      <trkpt lat="48.83801" lon="2.40042">
        <ele>50.799999237061</ele>
        <time>2016-09-19T20:10:49.000Z</time>
      </trkpt>
      <trkpt lat="48.83803" lon="2.40034">
        <ele>51.200000762939</ele>
        <time>2016-09-19T20:10:50.000Z</time>
      </trkpt>
      <trkpt lat="48.83826" lon="2.39965">
        <ele>56</ele>
        <time>2016-09-19T20:10:59.000Z</time>
      </trkpt>
      <trkpt lat="48.83845" lon="2.39902">
        <ele>58</ele>
        <time>2016-09-19T20:11:08.000Z</time>
      </trkpt>
      <trkpt lat="48.83866" lon="2.39837">
        <ele>60.799999237061</ele>
        <time>2016-09-19T20:11:18.000Z</time>
      </trkpt>
      <trkpt lat="48.83881" lon="2.39777">
        <ele>59.400001525879</ele>
        <time>2016-09-19T20:11:27.000Z</time>
      </trkpt>
      <trkpt lat="48.83906" lon="2.39712">
        <ele>57.400001525879</ele>
        <time>2016-09-19T20:11:36.000Z</time>
      </trkpt>
      <trkpt lat="48.83929" lon="2.39652">
        <ele>58.400001525879</ele>
        <time>2016-09-19T20:11:46.000Z</time>
      </trkpt>
      <trkpt lat="48.8394" lon="2.39625">
        <ele>58</ele>
        <time>2016-09-19T20:11:55.000Z</time>
      </trkpt>
      <trkpt lat="48.83953" lon="2.3962">
        <ele>58.400001525879</ele>
        <time>2016-09-19T20:13:24.000Z</time>
      </trkpt>
      <trkpt lat="48.8398" lon="2.3957">
        <ele>58.400001525879</ele>
        <time>2016-09-19T20:13:41.000Z</time>
      </trkpt>
      <trkpt lat="48.83981" lon="2.39497">
        <ele>57</ele>
        <time>2016-09-19T20:13:54.000Z</time>
      </trkpt>
      <trkpt lat="48.83996" lon="2.39429">
        <ele>56.200000762939</ele>
        <time>2016-09-19T20:14:04.000Z</time>
      </trkpt>
      <trkpt lat="48.84008" lon="2.39363">
        <ele>54</ele>
        <time>2016-09-19T20:14:12.000Z</time>
      </trkpt>
      <trkpt lat="48.84023" lon="2.39289">
        <ele>51.599998474121</ele>
        <time>2016-09-19T20:14:20.000Z</time>
      </trkpt>
      <trkpt lat="48.84042" lon="2.39218">
        <ele>50.599998474121</ele>
        <time>2016-09-19T20:14:28.000Z</time>
      </trkpt>
      <trkpt lat="48.84056" lon="2.39151">
        <ele>50.599998474121</ele>
        <time>2016-09-19T20:14:35.000Z</time>
      </trkpt>
      <trkpt lat="48.84072" lon="2.3908">
        <ele>50.400001525879</ele>
        <time>2016-09-19T20:14:42.000Z</time>
      </trkpt>
      <trkpt lat="48.84085" lon="2.39009">
        <ele>51.200000762939</ele>
        <time>2016-09-19T20:14:48.000Z</time>
      </trkpt>
      <trkpt lat="48.84104" lon="2.38942">
        <ele>49.599998474121</ele>
        <time>2016-09-19T20:14:54.000Z</time>
      </trkpt>
      <trkpt lat="48.84123" lon="2.38869">
        <ele>47.799999237061</ele>
        <time>2016-09-19T20:15:01.000Z</time>
      </trkpt>
      <trkpt lat="48.84138" lon="2.38799">
        <ele>44.599998474121</ele>
        <time>2016-09-19T20:15:07.000Z</time>
      </trkpt>
      <trkpt lat="48.84141" lon="2.38788">
        <ele>44.400001525879</ele>
        <time>2016-09-19T20:15:08.000Z</time>
      </trkpt>
      <trkpt lat="48.84163" lon="2.38716">
        <ele>44.400001525879</ele>
        <time>2016-09-19T20:15:14.000Z</time>
      </trkpt>
      <trkpt lat="48.84187" lon="2.38649">
        <ele>44.799999237061</ele>
        <time>2016-09-19T20:15:20.000Z</time>
      </trkpt>
      <trkpt lat="48.84215" lon="2.38588">
        <ele>43.400001525879</ele>
        <time>2016-09-19T20:15:26.000Z</time>
      </trkpt>
      <trkpt lat="48.84243" lon="2.38523">
        <ele>40.400001525879</ele>
        <time>2016-09-19T20:15:32.000Z</time>
      </trkpt>
      <trkpt lat="48.84271" lon="2.38466">
        <ele>40</ele>
        <time>2016-09-19T20:15:38.000Z</time>
      </trkpt>
      <trkpt lat="48.84296" lon="2.38403">
        <ele>39.200000762939</ele>
        <time>2016-09-19T20:15:45.000Z</time>
      </trkpt>
      <trkpt lat="48.84325" lon="2.38342">
        <ele>39</ele>
        <time>2016-09-19T20:15:52.000Z</time>
      </trkpt>
      <trkpt lat="48.84352" lon="2.38283">
        <ele>42.200000762939</ele>
        <time>2016-09-19T20:15:59.000Z</time>
      </trkpt>
      <trkpt lat="48.84381" lon="2.38224">
        <ele>42.799999237061</ele>
        <time>2016-09-19T20:16:06.000Z</time>
      </trkpt>
      <trkpt lat="48.84408" lon="2.38172">
        <ele>40.400001525879</ele>
        <time>2016-09-19T20:16:13.000Z</time>
      </trkpt>
      <trkpt lat="48.84414" lon="2.38156">
        <ele>39.799999237061</ele>
        <time>2016-09-19T20:16:16.000Z</time>
      </trkpt>
      <trkpt lat="48.84424" lon="2.38141">
        <ele>39</ele>
        <time>2016-09-19T20:16:19.000Z</time>
      </trkpt>
      <trkpt lat="48.84452" lon="2.38086">
        <ele>37.799999237061</ele>
        <time>2016-09-19T20:16:28.000Z</time>
      </trkpt>
      <trkpt lat="48.84469" lon="2.38049">
        <ele>38.400001525879</ele>
        <time>2016-09-19T20:16:33.000Z</time>
      </trkpt>
      <trkpt lat="48.84497" lon="2.37991">
        <ele>38.400001525879</ele>
        <time>2016-09-19T20:16:42.000Z</time>
      </trkpt>
      <trkpt lat="48.84527" lon="2.37934">
        <ele>38.200000762939</ele>
        <time>2016-09-19T20:16:51.000Z</time>
      </trkpt>
      <trkpt lat="48.84557" lon="2.37874">
        <ele>37.200000762939</ele>
        <time>2016-09-19T20:17:00.000Z</time>
      </trkpt>
      <trkpt lat="48.84586" lon="2.37814">
        <ele>39</ele>
        <time>2016-09-19T20:17:09.000Z</time>
      </trkpt>
      <trkpt lat="48.84613" lon="2.37755">
        <ele>41.200000762939</ele>
        <time>2016-09-19T20:17:17.000Z</time>
      </trkpt>
      <trkpt lat="48.84641" lon="2.37697">
        <ele>41.799999237061</ele>
        <time>2016-09-19T20:17:25.000Z</time>
      </trkpt>
      <trkpt lat="48.84651" lon="2.37677">
        <ele>41.599998474121</ele>
        <time>2016-09-19T20:17:28.000Z</time>
      </trkpt>
      <trkpt lat="48.84679" lon="2.37623">
        <ele>41.599998474121</ele>
        <time>2016-09-19T20:17:36.000Z</time>
      </trkpt>
      <trkpt lat="48.84708" lon="2.37565">
        <ele>41</ele>
        <time>2016-09-19T20:17:44.000Z</time>
      </trkpt>
      <trkpt lat="48.84734" lon="2.37507">
        <ele>40.799999237061</ele>
        <time>2016-09-19T20:17:51.000Z</time>
      </trkpt>
      <trkpt lat="48.84764" lon="2.37449">
        <ele>40.200000762939</ele>
        <time>2016-09-19T20:17:59.000Z</time>
      </trkpt>
      <trkpt lat="48.84793" lon="2.37391">
        <ele>41</ele>
        <time>2016-09-19T20:18:08.000Z</time>
      </trkpt>
      <trkpt lat="48.84821" lon="2.3733">
        <ele>40.799999237061</ele>
        <time>2016-09-19T20:18:19.000Z</time>
      </trkpt>
      <trkpt lat="48.84848" lon="2.37273">
        <ele>39.400001525879</ele>
        <time>2016-09-19T20:18:27.000Z</time>
      </trkpt>
      <trkpt lat="48.84876" lon="2.37218">
        <ele>39.799999237061</ele>
        <time>2016-09-19T20:18:36.000Z</time>
      </trkpt>
      <trkpt lat="48.84902" lon="2.3716">
        <ele>39.799999237061</ele>
        <time>2016-09-19T20:18:44.000Z</time>
      </trkpt>
      <trkpt lat="48.84932" lon="2.37103">
        <ele>41</ele>
        <time>2016-09-19T20:18:51.000Z</time>
      </trkpt>
      <trkpt lat="48.84971" lon="2.3706">
        <ele>42.400001525879</ele>
        <time>2016-09-19T20:18:59.000Z</time>
      </trkpt>
      <trkpt lat="48.85014" lon="2.3703">
        <ele>44</ele>
        <time>2016-09-19T20:19:08.000Z</time>
      </trkpt>
      <trkpt lat="48.85061" lon="2.37002">
        <ele>47.200000762939</ele>
        <time>2016-09-19T20:19:18.000Z</time>
      </trkpt>
      <trkpt lat="48.85108" lon="2.36991">
        <ele>48.799999237061</ele>
        <time>2016-09-19T20:19:26.000Z</time>
      </trkpt>
      <trkpt lat="48.85155" lon="2.36977">
        <ele>47.599998474121</ele>
        <time>2016-09-19T20:19:35.000Z</time>
      </trkpt>
      <trkpt lat="48.85194" lon="2.36953">
        <ele>43.799999237061</ele>
        <time>2016-09-19T20:23:03.000Z</time>
      </trkpt>
      <trkpt lat="48.85198" lon="2.36952">
        <ele>43.799999237061</ele>
        <time>2016-09-19T20:23:06.000Z</time>
      </trkpt>
      <trkpt lat="48.85203" lon="2.36944">
        <ele>43.200000762939</ele>
        <time>2016-09-19T20:23:10.000Z</time>
      </trkpt>
      <trkpt lat="48.85223" lon="2.36894">
        <ele>39.400001525879</ele>
        <time>2016-09-19T20:23:31.000Z</time>
      </trkpt>
      <trkpt lat="48.8526" lon="2.36867">
        <ele>40</ele>
        <time>2016-09-19T20:23:51.000Z</time>
      </trkpt>
      <trkpt lat="48.85274" lon="2.36805">
        <ele>40.400001525879</ele>
        <time>2016-09-19T20:24:30.000Z</time>
      </trkpt>
      <trkpt lat="48.85272" lon="2.368">
        <ele>40.400001525879</ele>
        <time>2016-09-19T20:24:35.000Z</time>
      </trkpt>
      <trkpt lat="48.85273" lon="2.36793">
        <ele>40.799999237061</ele>
        <time>2016-09-19T20:24:38.000Z</time>
      </trkpt>
      <trkpt lat="48.85259" lon="2.36724">
        <ele>43.599998474121</ele>
        <time>2016-09-19T20:24:55.000Z</time>
      </trkpt>
      <trkpt lat="48.85257" lon="2.367">
        <ele>44.200000762939</ele>
        <time>2016-09-19T20:25:03.000Z</time>
      </trkpt>
      <trkpt lat="48.85302" lon="2.36722">
        <ele>45</ele>
        <time>2016-09-19T20:25:19.000Z</time>
      </trkpt>
      <trkpt lat="48.85332" lon="2.36715">
        <ele>46</ele>
        <time>2016-09-19T20:25:27.000Z</time>
      </trkpt>
      <trkpt lat="48.85344" lon="2.3668">
        <ele>43.400001525879</ele>
        <time>2016-09-19T20:25:34.000Z</time>
      </trkpt>
      <trkpt lat="48.85356" lon="2.36636">
        <ele>42.599998474121</ele>
        <time>2016-09-19T20:25:41.000Z</time>
      </trkpt>
      <trkpt lat="48.85366" lon="2.36593">
        <ele>44</ele>
        <time>2016-09-19T20:25:47.000Z</time>
      </trkpt>
      <trkpt lat="48.85371" lon="2.3657">
        <ele>43.599998474121</ele>
        <time>2016-09-19T20:25:50.000Z</time>
      </trkpt>
      <trkpt lat="48.8539" lon="2.36507">
        <ele>43.799999237061</ele>
        <time>2016-09-19T20:25:58.000Z</time>
      </trkpt>
      <trkpt lat="48.85408" lon="2.3644">
        <ele>45.799999237061</ele>
        <time>2016-09-19T20:26:06.000Z</time>
      </trkpt>
      <trkpt lat="48.85429" lon="2.36377">
        <ele>45.400001525879</ele>
        <time>2016-09-19T20:26:14.000Z</time>
      </trkpt>
      <trkpt lat="48.85453" lon="2.36314">
        <ele>44</ele>
        <time>2016-09-19T20:26:23.000Z</time>
      </trkpt>
      <trkpt lat="48.85479" lon="2.36258">
        <ele>42.400001525879</ele>
        <time>2016-09-19T20:26:32.000Z</time>
      </trkpt>
      <trkpt lat="48.85501" lon="2.36199">
        <ele>43.200000762939</ele>
        <time>2016-09-19T20:26:41.000Z</time>
      </trkpt>
      <trkpt lat="48.85514" lon="2.36155">
        <ele>44.599998474121</ele>
        <time>2016-09-19T20:26:47.000Z</time>
      </trkpt>
      <trkpt lat="48.85532" lon="2.36086">
        <ele>44</ele>
        <time>2016-09-19T20:26:56.000Z</time>
      </trkpt>
      <trkpt lat="48.85545" lon="2.36024">
        <ele>45</ele>
        <time>2016-09-19T20:27:03.000Z</time>
      </trkpt>
      <trkpt lat="48.8555" lon="2.36">
        <ele>45.400001525879</ele>
        <time>2016-09-19T20:27:06.000Z</time>
      </trkpt>
      <trkpt lat="48.85554" lon="2.35985">
        <ele>45.200000762939</ele>
        <time>2016-09-19T20:27:08.000Z</time>
      </trkpt>
      <trkpt lat="48.85557" lon="2.35963">
        <ele>45</ele>
        <time>2016-09-19T20:27:11.000Z</time>
      </trkpt>
      <trkpt lat="48.8557" lon="2.35893">
        <ele>44.400001525879</ele>
        <time>2016-09-19T20:27:20.000Z</time>
      </trkpt>
      <trkpt lat="48.85587" lon="2.35826">
        <ele>44.799999237061</ele>
        <time>2016-09-19T20:27:30.000Z</time>
      </trkpt>
      <trkpt lat="48.85608" lon="2.35761">
        <ele>45.200000762939</ele>
        <time>2016-09-19T20:27:40.000Z</time>
      </trkpt>
      <trkpt lat="48.85609" lon="2.35754">
        <ele>45.200000762939</ele>
        <time>2016-09-19T20:27:41.000Z</time>
      </trkpt>
      <trkpt lat="48.85618" lon="2.35705">
        <ele>45</ele>
        <time>2016-09-19T20:27:48.000Z</time>
      </trkpt>
      <trkpt lat="48.85625" lon="2.3568">
        <ele>44.799999237061</ele>
        <time>2016-09-19T20:27:51.000Z</time>
      </trkpt>
      <trkpt lat="48.85642" lon="2.35616">
        <ele>44.400001525879</ele>
        <time>2016-09-19T20:27:59.000Z</time>
      </trkpt>
      <trkpt lat="48.85657" lon="2.35544">
        <ele>43.400001525879</ele>
        <time>2016-09-19T20:28:07.000Z</time>
      </trkpt>
      <trkpt lat="48.85676" lon="2.35476">
        <ele>46</ele>
        <time>2016-09-19T20:28:14.000Z</time>
      </trkpt>
      <trkpt lat="48.85694" lon="2.35409">
        <ele>45.599998474121</ele>
        <time>2016-09-19T20:28:21.000Z</time>
      </trkpt>
      <trkpt lat="48.85709" lon="2.35337">
        <ele>48.799999237061</ele>
        <time>2016-09-19T20:28:28.000Z</time>
      </trkpt>
      <trkpt lat="48.85727" lon="2.35265">
        <ele>47.799999237061</ele>
        <time>2016-09-19T20:28:35.000Z</time>
      </trkpt>
      <trkpt lat="48.85739" lon="2.35193">
        <ele>42</ele>
        <time>2016-09-19T20:28:42.000Z</time>
      </trkpt>
      <trkpt lat="48.85742" lon="2.35174">
        <ele>40.799999237061</ele>
        <time>2016-09-19T20:28:44.000Z</time>
      </trkpt>
      <trkpt lat="48.85763" lon="2.35104">
        <ele>43</ele>
        <time>2016-09-19T20:28:52.000Z</time>
      </trkpt>
      <trkpt lat="48.85781" lon="2.3504">
        <ele>46.799999237061</ele>
        <time>2016-09-19T20:28:59.000Z</time>
      </trkpt>
      <trkpt lat="48.858" lon="2.34975">
        <ele>45.799999237061</ele>
        <time>2016-09-19T20:29:07.000Z</time>
      </trkpt>
      <trkpt lat="48.85819" lon="2.34908">
        <ele>44.599998474121</ele>
        <time>2016-09-19T20:29:16.000Z</time>
      </trkpt>
      <trkpt lat="48.85837" lon="2.34844">
        <ele>45.799999237061</ele>
        <time>2016-09-19T20:29:26.000Z</time>
      </trkpt>
      <trkpt lat="48.85861" lon="2.34784">
        <ele>47.400001525879</ele>
        <time>2016-09-19T20:29:43.000Z</time>
      </trkpt>
      <trkpt lat="48.85885" lon="2.34739">
        <ele>46.200000762939</ele>
        <time>2016-09-19T20:29:54.000Z</time>
      </trkpt>
      <trkpt lat="48.85927" lon="2.34711">
        <ele>45.599998474121</ele>
        <time>2016-09-19T20:30:08.000Z</time>
      </trkpt>
      <trkpt lat="48.85941" lon="2.34702">
        <ele>45.599998474121</ele>
        <time>2016-09-19T20:30:13.000Z</time>
      </trkpt>
      <trkpt lat="48.8595" lon="2.34717">
        <ele>45.200000762939</ele>
        <time>2016-09-19T20:30:25.000Z</time>
      </trkpt>
    </trkseg>
  </trk>
</gpx>